<?xml version="1.0" encoding="UTF-8" standalone="no" ?><gpx xmlns="http://www.topografix.com/GPX/1/1" xmlns:gpxx="http://www.garmin.com/xmlschemas/GpxExtensions/v3" xmlns:wptx1="http://www.garmin.com/xmlschemas/WaypointExtension/v1" xmlns:gpxtpx="http://www.garmin.com/xmlschemas/TrackPointExtension/v1" creator="GuideVTT.com" version="1.1" xmlns:xsi="http://www.w3.org/2001/XMLSchema-instance" xsi:schemaLocation="http://www.topografix.com/GPX/1/1 http://www.topografix.com/GPX/1/1/gpx.xsd http://www.garmin.com/xmlschemas/GpxExtensions/v3 http://www8.garmin.com/xmlschemas/GpxExtensionsv3.xsd http://www.garmin.com/xmlschemas/WaypointExtension/v1 http://www8.garmin.com/xmlschemas/WaypointExtensionv1.xsd http://www.garmin.com/xmlschemas/TrackPointExtension/v1 http://www.garmin.com/xmlschemas/TrackPointExtensionv1.xsd">
<metadata><link href="http://www.garmin.com"><text>Garmin International</text></link><time>2013-06-22T15:13:50Z</time></metadata>
<trk><name>grande_margot.gpx</name><extensions><gpxx:TrackExtension><gpxx:DisplayColor>Cyan</gpxx:DisplayColor></gpxx:TrackExtension></extensions><trkseg>
<trkpt lat="46.18203333" lon="5.31276667"><ele>299</ele><time>2008-10-11T14:24:12Z</time></trkpt>
<trkpt lat="46.18196667" lon="5.31298333"><ele>299</ele><time>2008-10-11T14:25:26Z</time></trkpt>
<trkpt lat="46.18200000" lon="5.31305000"><ele>299</ele><time>2008-10-11T14:25:28Z</time></trkpt>
<trkpt lat="46.18215000" lon="5.31318333"><ele>300</ele><time>2008-10-11T14:25:32Z</time></trkpt>
<trkpt lat="46.18233333" lon="5.31333333"><ele>301</ele><time>2008-10-11T14:25:38Z</time></trkpt>
<trkpt lat="46.18256667" lon="5.31351667"><ele>300</ele><time>2008-10-11T14:25:46Z</time></trkpt>
<trkpt lat="46.18270000" lon="5.31361667"><ele>300</ele><time>2008-10-11T14:25:50Z</time></trkpt>
<trkpt lat="46.18281667" lon="5.31375000"><ele>300</ele><time>2008-10-11T14:25:54Z</time></trkpt>
<trkpt lat="46.18295000" lon="5.31385000"><ele>300</ele><time>2008-10-11T14:25:58Z</time></trkpt>
<trkpt lat="46.18306667" lon="5.31395000"><ele>300</ele><time>2008-10-11T14:26:02Z</time></trkpt>
<trkpt lat="46.18361667" lon="5.31438333"><ele>302</ele><time>2008-10-11T14:26:20Z</time></trkpt>
<trkpt lat="46.18375000" lon="5.31426667"><ele>301</ele><time>2008-10-11T14:26:24Z</time></trkpt>
<trkpt lat="46.18388333" lon="5.31415000"><ele>300</ele><time>2008-10-11T14:26:28Z</time></trkpt>
<trkpt lat="46.18401667" lon="5.31400000"><ele>300</ele><time>2008-10-11T14:26:32Z</time></trkpt>
<trkpt lat="46.18431667" lon="5.31366667"><ele>299</ele><time>2008-10-11T14:26:40Z</time></trkpt>
<trkpt lat="46.18446667" lon="5.31345000"><ele>298</ele><time>2008-10-11T14:26:44Z</time></trkpt>
<trkpt lat="46.18526667" lon="5.31233333"><ele>295</ele><time>2008-10-11T14:27:02Z</time></trkpt>
<trkpt lat="46.18548333" lon="5.31206667"><ele>293</ele><time>2008-10-11T14:27:06Z</time></trkpt>
<trkpt lat="46.18561667" lon="5.31196667"><ele>293</ele><time>2008-10-11T14:27:08Z</time></trkpt>
<trkpt lat="46.18598333" lon="5.31173333"><ele>292</ele><time>2008-10-11T14:27:14Z</time></trkpt>
<trkpt lat="46.18648333" lon="5.31145000"><ele>291</ele><time>2008-10-11T14:27:22Z</time></trkpt>
<trkpt lat="46.18671667" lon="5.31145000"><ele>291</ele><time>2008-10-11T14:27:26Z</time></trkpt>
<trkpt lat="46.18695000" lon="5.31146667"><ele>291</ele><time>2008-10-11T14:27:30Z</time></trkpt>
<trkpt lat="46.18715000" lon="5.31153333"><ele>290</ele><time>2008-10-11T14:27:34Z</time></trkpt>
<trkpt lat="46.18721667" lon="5.31176667"><ele>290</ele><time>2008-10-11T14:27:38Z</time></trkpt>
<trkpt lat="46.18721667" lon="5.31206667"><ele>290</ele><time>2008-10-11T14:27:42Z</time></trkpt>
<trkpt lat="46.18723333" lon="5.31236667"><ele>290</ele><time>2008-10-11T14:27:46Z</time></trkpt>
<trkpt lat="46.18726667" lon="5.31288333"><ele>289</ele><time>2008-10-11T14:27:52Z</time></trkpt>
<trkpt lat="46.18731667" lon="5.31325000"><ele>289</ele><time>2008-10-11T14:27:56Z</time></trkpt>
<trkpt lat="46.18738333" lon="5.31383333"><ele>287</ele><time>2008-10-11T14:28:02Z</time></trkpt>
<trkpt lat="46.18733333" lon="5.31418333"><ele>287</ele><time>2008-10-11T14:28:06Z</time></trkpt>
<trkpt lat="46.18725000" lon="5.31446667"><ele>288</ele><time>2008-10-11T14:28:10Z</time></trkpt>
<trkpt lat="46.18718333" lon="5.31473333"><ele>287</ele><time>2008-10-11T14:28:14Z</time></trkpt>
<trkpt lat="46.18715000" lon="5.31500000"><ele>287</ele><time>2008-10-11T14:28:18Z</time></trkpt>
<trkpt lat="46.18715000" lon="5.31526667"><ele>287</ele><time>2008-10-11T14:28:22Z</time></trkpt>
<trkpt lat="46.18706667" lon="5.31548333"><ele>287</ele><time>2008-10-11T14:28:27Z</time></trkpt>
<trkpt lat="46.18703333" lon="5.31575000"><ele>287</ele><time>2008-10-11T14:28:31Z</time></trkpt>
<trkpt lat="46.18703333" lon="5.31608333"><ele>287</ele><time>2008-10-11T14:28:35Z</time></trkpt>
<trkpt lat="46.18703333" lon="5.31655000"><ele>286</ele><time>2008-10-11T14:28:41Z</time></trkpt>
<trkpt lat="46.18705000" lon="5.31683333"><ele>286</ele><time>2008-10-11T14:28:45Z</time></trkpt>
<trkpt lat="46.18708333" lon="5.31718333"><ele>286</ele><time>2008-10-11T14:28:51Z</time></trkpt>
<trkpt lat="46.18728333" lon="5.31726667"><ele>286</ele><time>2008-10-11T14:28:57Z</time></trkpt>
<trkpt lat="46.18746667" lon="5.31726667"><ele>285</ele><time>2008-10-11T14:29:01Z</time></trkpt>
<trkpt lat="46.18776667" lon="5.31725000"><ele>285</ele><time>2008-10-11T14:29:07Z</time></trkpt>
<trkpt lat="46.18795000" lon="5.31711667"><ele>284</ele><time>2008-10-11T14:29:11Z</time></trkpt>
<trkpt lat="46.18811667" lon="5.31693333"><ele>284</ele><time>2008-10-11T14:29:15Z</time></trkpt>
<trkpt lat="46.18823333" lon="5.31666667"><ele>284</ele><time>2008-10-11T14:29:19Z</time></trkpt>
<trkpt lat="46.18831667" lon="5.31636667"><ele>284</ele><time>2008-10-11T14:29:23Z</time></trkpt>
<trkpt lat="46.18858333" lon="5.31555000"><ele>284</ele><time>2008-10-11T14:29:35Z</time></trkpt>
<trkpt lat="46.18870000" lon="5.31530000"><ele>284</ele><time>2008-10-11T14:29:39Z</time></trkpt>
<trkpt lat="46.18890000" lon="5.31520000"><ele>285</ele><time>2008-10-11T14:29:43Z</time></trkpt>
<trkpt lat="46.18908333" lon="5.31521667"><ele>286</ele><time>2008-10-11T14:29:47Z</time></trkpt>
<trkpt lat="46.18935000" lon="5.31525000"><ele>288</ele><time>2008-10-11T14:29:53Z</time></trkpt>
<trkpt lat="46.18951667" lon="5.31518333"><ele>289</ele><time>2008-10-11T14:29:57Z</time></trkpt>
<trkpt lat="46.18968333" lon="5.31506667"><ele>290</ele><time>2008-10-11T14:30:01Z</time></trkpt>
<trkpt lat="46.18983333" lon="5.31491667"><ele>290</ele><time>2008-10-11T14:30:05Z</time></trkpt>
<trkpt lat="46.18991667" lon="5.31471667"><ele>290</ele><time>2008-10-11T14:30:09Z</time></trkpt>
<trkpt lat="46.19001667" lon="5.31448333"><ele>290</ele><time>2008-10-11T14:30:13Z</time></trkpt>
<trkpt lat="46.19013333" lon="5.31425000"><ele>290</ele><time>2008-10-11T14:30:17Z</time></trkpt>
<trkpt lat="46.19030000" lon="5.31403333"><ele>289</ele><time>2008-10-11T14:30:21Z</time></trkpt>
<trkpt lat="46.19046667" lon="5.31383333"><ele>289</ele><time>2008-10-11T14:30:27Z</time></trkpt>
<trkpt lat="46.19063333" lon="5.31371667"><ele>288</ele><time>2008-10-11T14:30:31Z</time></trkpt>
<trkpt lat="46.19081667" lon="5.31360000"><ele>288</ele><time>2008-10-11T14:30:35Z</time></trkpt>
<trkpt lat="46.19110000" lon="5.31343333"><ele>288</ele><time>2008-10-11T14:30:41Z</time></trkpt>
<trkpt lat="46.19146667" lon="5.31320000"><ele>288</ele><time>2008-10-11T14:30:49Z</time></trkpt>
<trkpt lat="46.19191667" lon="5.31290000"><ele>289</ele><time>2008-10-11T14:30:57Z</time></trkpt>
<trkpt lat="46.19211667" lon="5.31281667"><ele>290</ele><time>2008-10-11T14:31:01Z</time></trkpt>
<trkpt lat="46.19230000" lon="5.31266667"><ele>291</ele><time>2008-10-11T14:31:05Z</time></trkpt>
<trkpt lat="46.19253333" lon="5.31245000"><ele>291</ele><time>2008-10-11T14:31:11Z</time></trkpt>
<trkpt lat="46.19270000" lon="5.31231667"><ele>291</ele><time>2008-10-11T14:31:15Z</time></trkpt>
<trkpt lat="46.19415000" lon="5.31100000"><ele>287</ele><time>2008-10-11T14:31:47Z</time></trkpt>
<trkpt lat="46.19405000" lon="5.31086667"><ele>287</ele><time>2008-10-11T14:31:53Z</time></trkpt>
<trkpt lat="46.19388333" lon="5.31073333"><ele>287</ele><time>2008-10-11T14:31:59Z</time></trkpt>
<trkpt lat="46.19311667" lon="5.31011667"><ele>288</ele><time>2008-10-11T14:32:23Z</time></trkpt>
<trkpt lat="46.19293333" lon="5.30998333"><ele>287</ele><time>2008-10-11T14:32:27Z</time></trkpt>
<trkpt lat="46.19148333" lon="5.30895000"><ele>283</ele><time>2008-10-11T14:32:57Z</time></trkpt>
<trkpt lat="46.19131667" lon="5.30875000"><ele>282</ele><time>2008-10-11T14:33:01Z</time></trkpt>
<trkpt lat="46.19125000" lon="5.30843333"><ele>281</ele><time>2008-10-11T14:33:05Z</time></trkpt>
<trkpt lat="46.19120000" lon="5.30813333"><ele>280</ele><time>2008-10-11T14:33:09Z</time></trkpt>
<trkpt lat="46.19118333" lon="5.30781667"><ele>279</ele><time>2008-10-11T14:33:13Z</time></trkpt>
<trkpt lat="46.19115000" lon="5.30700000"><ele>278</ele><time>2008-10-11T14:33:23Z</time></trkpt>
<trkpt lat="46.19115000" lon="5.30666667"><ele>277</ele><time>2008-10-11T14:33:27Z</time></trkpt>
<trkpt lat="46.19118333" lon="5.30635000"><ele>277</ele><time>2008-10-11T14:33:31Z</time></trkpt>
<trkpt lat="46.19126667" lon="5.30605000"><ele>277</ele><time>2008-10-11T14:33:35Z</time></trkpt>
<trkpt lat="46.19140000" lon="5.30581667"><ele>277</ele><time>2008-10-11T14:33:39Z</time></trkpt>
<trkpt lat="46.19155000" lon="5.30560000"><ele>276</ele><time>2008-10-11T14:33:43Z</time></trkpt>
<trkpt lat="46.19243333" lon="5.30431667"><ele>274</ele><time>2008-10-11T14:34:05Z</time></trkpt>
<trkpt lat="46.19340000" lon="5.30286667"><ele>272</ele><time>2008-10-11T14:34:29Z</time></trkpt>
<trkpt lat="46.19370000" lon="5.30238333"><ele>271</ele><time>2008-10-11T14:34:37Z</time></trkpt>
<trkpt lat="46.19383333" lon="5.30211667"><ele>270</ele><time>2008-10-11T14:34:41Z</time></trkpt>
<trkpt lat="46.19455000" lon="5.30060000"><ele>268</ele><time>2008-10-11T14:35:03Z</time></trkpt>
<trkpt lat="46.19481667" lon="5.30003333"><ele>266</ele><time>2008-10-11T14:35:11Z</time></trkpt>
<trkpt lat="46.19496667" lon="5.29970000"><ele>265</ele><time>2008-10-11T14:35:15Z</time></trkpt>
<trkpt lat="46.19536667" lon="5.29883333"><ele>263</ele><time>2008-10-11T14:35:25Z</time></trkpt>
<trkpt lat="46.19553333" lon="5.29846667"><ele>261</ele><time>2008-10-11T14:35:29Z</time></trkpt>
<trkpt lat="46.19565000" lon="5.29831667"><ele>261</ele><time>2008-10-11T14:35:31Z</time></trkpt>
<trkpt lat="46.19606667" lon="5.29781667"><ele>262</ele><time>2008-10-11T14:35:39Z</time></trkpt>
<trkpt lat="46.19625000" lon="5.29755000"><ele>262</ele><time>2008-10-11T14:35:45Z</time></trkpt>
<trkpt lat="46.19641667" lon="5.29758333"><ele>262</ele><time>2008-10-11T14:35:51Z</time></trkpt>
<trkpt lat="46.19656667" lon="5.29763333"><ele>263</ele><time>2008-10-11T14:35:55Z</time></trkpt>
<trkpt lat="46.19680000" lon="5.29773333"><ele>263</ele><time>2008-10-11T14:36:01Z</time></trkpt>
<trkpt lat="46.19695000" lon="5.29778333"><ele>264</ele><time>2008-10-11T14:36:05Z</time></trkpt>
<trkpt lat="46.19793333" lon="5.29810000"><ele>264</ele><time>2008-10-11T14:36:25Z</time></trkpt>
<trkpt lat="46.19856667" lon="5.29830000"><ele>265</ele><time>2008-10-11T14:36:37Z</time></trkpt>
<trkpt lat="46.19878333" lon="5.29838333"><ele>265</ele><time>2008-10-11T14:36:41Z</time></trkpt>
<trkpt lat="46.19910000" lon="5.29846667"><ele>265</ele><time>2008-10-11T14:36:47Z</time></trkpt>
<trkpt lat="46.19948333" lon="5.29860000"><ele>266</ele><time>2008-10-11T14:36:55Z</time></trkpt>
<trkpt lat="46.19975000" lon="5.29868333"><ele>266</ele><time>2008-10-11T14:37:01Z</time></trkpt>
<trkpt lat="46.20016667" lon="5.29881667"><ele>266</ele><time>2008-10-11T14:37:09Z</time></trkpt>
<trkpt lat="46.20315000" lon="5.29981667"><ele>263</ele><time>2008-10-11T14:37:59Z</time></trkpt>
<trkpt lat="46.20338333" lon="5.29990000"><ele>263</ele><time>2008-10-11T14:38:03Z</time></trkpt>
<trkpt lat="46.20453333" lon="5.30030000"><ele>262</ele><time>2008-10-11T14:38:25Z</time></trkpt>
<trkpt lat="46.20446667" lon="5.30050000"><ele>262</ele><time>2008-10-11T14:38:35Z</time></trkpt>
<trkpt lat="46.20430000" lon="5.30061667"><ele>263</ele><time>2008-10-11T14:38:41Z</time></trkpt>
<trkpt lat="46.20418333" lon="5.30075000"><ele>263</ele><time>2008-10-11T14:38:45Z</time></trkpt>
<trkpt lat="46.20406667" lon="5.30091667"><ele>263</ele><time>2008-10-11T14:38:49Z</time></trkpt>
<trkpt lat="46.20401667" lon="5.30113333"><ele>263</ele><time>2008-10-11T14:38:53Z</time></trkpt>
<trkpt lat="46.20395000" lon="5.30135000"><ele>263</ele><time>2008-10-11T14:38:57Z</time></trkpt>
<trkpt lat="46.20385000" lon="5.30158333"><ele>263</ele><time>2008-10-11T14:39:01Z</time></trkpt>
<trkpt lat="46.20378333" lon="5.30185000"><ele>264</ele><time>2008-10-11T14:39:05Z</time></trkpt>
<trkpt lat="46.20366667" lon="5.30228333"><ele>264</ele><time>2008-10-11T14:39:11Z</time></trkpt>
<trkpt lat="46.20355000" lon="5.30273333"><ele>264</ele><time>2008-10-11T14:39:17Z</time></trkpt>
<trkpt lat="46.20336667" lon="5.30290000"><ele>264</ele><time>2008-10-11T14:39:21Z</time></trkpt>
<trkpt lat="46.20316667" lon="5.30303333"><ele>265</ele><time>2008-10-11T14:39:25Z</time></trkpt>
<trkpt lat="46.20298333" lon="5.30320000"><ele>265</ele><time>2008-10-11T14:39:29Z</time></trkpt>
<trkpt lat="46.20285000" lon="5.30340000"><ele>265</ele><time>2008-10-11T14:39:33Z</time></trkpt>
<trkpt lat="46.20283333" lon="5.30361667"><ele>265</ele><time>2008-10-11T14:39:37Z</time></trkpt>
<trkpt lat="46.20298333" lon="5.30375000"><ele>265</ele><time>2008-10-11T14:39:41Z</time></trkpt>
<trkpt lat="46.20331667" lon="5.30403333"><ele>265</ele><time>2008-10-11T14:39:49Z</time></trkpt>
<trkpt lat="46.20345000" lon="5.30421667"><ele>265</ele><time>2008-10-11T14:39:53Z</time></trkpt>
<trkpt lat="46.20351667" lon="5.30443333"><ele>265</ele><time>2008-10-11T14:39:57Z</time></trkpt>
<trkpt lat="46.20360000" lon="5.30476667"><ele>266</ele><time>2008-10-11T14:40:05Z</time></trkpt>
<trkpt lat="46.20365000" lon="5.30515000"><ele>266</ele><time>2008-10-11T14:40:25Z</time></trkpt>
<trkpt lat="46.20370000" lon="5.30540000"><ele>266</ele><time>2008-10-11T14:40:33Z</time></trkpt>
<trkpt lat="46.20370000" lon="5.30568333"><ele>267</ele><time>2008-10-11T14:40:39Z</time></trkpt>
<trkpt lat="46.20370000" lon="5.30600000"><ele>267</ele><time>2008-10-11T14:40:45Z</time></trkpt>
<trkpt lat="46.20371667" lon="5.30621667"><ele>267</ele><time>2008-10-11T14:40:49Z</time></trkpt>
<trkpt lat="46.20373333" lon="5.30691667"><ele>268</ele><time>2008-10-11T14:41:01Z</time></trkpt>
<trkpt lat="46.20373333" lon="5.30715000"><ele>269</ele><time>2008-10-11T14:41:05Z</time></trkpt>
<trkpt lat="46.20373333" lon="5.30760000"><ele>270</ele><time>2008-10-11T14:41:13Z</time></trkpt>
<trkpt lat="46.20375000" lon="5.30788333"><ele>270</ele><time>2008-10-11T14:41:19Z</time></trkpt>
<trkpt lat="46.20375000" lon="5.30808333"><ele>270</ele><time>2008-10-11T14:41:23Z</time></trkpt>
<trkpt lat="46.20376667" lon="5.30835000"><ele>271</ele><time>2008-10-11T14:41:29Z</time></trkpt>
<trkpt lat="46.20381667" lon="5.30890000"><ele>272</ele><time>2008-10-11T14:41:41Z</time></trkpt>
<trkpt lat="46.20388333" lon="5.30975000"><ele>274</ele><time>2008-10-11T14:41:59Z</time></trkpt>
<trkpt lat="46.20388333" lon="5.30995000"><ele>274</ele><time>2008-10-11T14:42:03Z</time></trkpt>
<trkpt lat="46.20390000" lon="5.31021667"><ele>275</ele><time>2008-10-11T14:42:09Z</time></trkpt>
<trkpt lat="46.20395000" lon="5.31068333"><ele>275</ele><time>2008-10-11T14:42:19Z</time></trkpt>
<trkpt lat="46.20396667" lon="5.31091667"><ele>276</ele><time>2008-10-11T14:42:25Z</time></trkpt>
<trkpt lat="46.20396667" lon="5.31116667"><ele>276</ele><time>2008-10-11T14:42:31Z</time></trkpt>
<trkpt lat="46.20396667" lon="5.31136667"><ele>276</ele><time>2008-10-11T14:42:35Z</time></trkpt>
<trkpt lat="46.20398333" lon="5.31165000"><ele>276</ele><time>2008-10-11T14:42:41Z</time></trkpt>
<trkpt lat="46.20400000" lon="5.31186667"><ele>276</ele><time>2008-10-11T14:42:47Z</time></trkpt>
<trkpt lat="46.20400000" lon="5.31211667"><ele>277</ele><time>2008-10-11T14:42:53Z</time></trkpt>
<trkpt lat="46.20401667" lon="5.31235000"><ele>277</ele><time>2008-10-11T14:42:59Z</time></trkpt>
<trkpt lat="46.20405000" lon="5.31260000"><ele>277</ele><time>2008-10-11T14:43:05Z</time></trkpt>
<trkpt lat="46.20408333" lon="5.31291667"><ele>278</ele><time>2008-10-11T14:43:13Z</time></trkpt>
<trkpt lat="46.20408333" lon="5.31315000"><ele>278</ele><time>2008-10-11T14:43:19Z</time></trkpt>
<trkpt lat="46.20420000" lon="5.31330000"><ele>278</ele><time>2008-10-11T14:43:25Z</time></trkpt>
<trkpt lat="46.20440000" lon="5.31331667"><ele>278</ele><time>2008-10-11T14:43:31Z</time></trkpt>
<trkpt lat="46.20456667" lon="5.31331667"><ele>278</ele><time>2008-10-11T14:43:35Z</time></trkpt>
<trkpt lat="46.20483333" lon="5.31328333"><ele>278</ele><time>2008-10-11T14:43:43Z</time></trkpt>
<trkpt lat="46.20496667" lon="5.31331667"><ele>278</ele><time>2008-10-11T14:43:47Z</time></trkpt>
<trkpt lat="46.20501667" lon="5.31355000"><ele>278</ele><time>2008-10-11T14:43:53Z</time></trkpt>
<trkpt lat="46.20501667" lon="5.31381667"><ele>279</ele><time>2008-10-11T14:43:59Z</time></trkpt>
<trkpt lat="46.20503333" lon="5.31406667"><ele>280</ele><time>2008-10-11T14:44:05Z</time></trkpt>
<trkpt lat="46.20506667" lon="5.31426667"><ele>281</ele><time>2008-10-11T14:44:09Z</time></trkpt>
<trkpt lat="46.20515000" lon="5.31443333"><ele>281</ele><time>2008-10-11T14:44:13Z</time></trkpt>
<trkpt lat="46.20525000" lon="5.31470000"><ele>282</ele><time>2008-10-11T14:44:19Z</time></trkpt>
<trkpt lat="46.20530000" lon="5.31490000"><ele>283</ele><time>2008-10-11T14:44:23Z</time></trkpt>
<trkpt lat="46.20531667" lon="5.31510000"><ele>284</ele><time>2008-10-11T14:44:27Z</time></trkpt>
<trkpt lat="46.20530000" lon="5.31530000"><ele>284</ele><time>2008-10-11T14:44:31Z</time></trkpt>
<trkpt lat="46.20528333" lon="5.31551667"><ele>285</ele><time>2008-10-11T14:44:35Z</time></trkpt>
<trkpt lat="46.20531667" lon="5.31573333"><ele>285</ele><time>2008-10-11T14:44:39Z</time></trkpt>
<trkpt lat="46.20538333" lon="5.31598333"><ele>285</ele><time>2008-10-11T14:44:45Z</time></trkpt>
<trkpt lat="46.20550000" lon="5.31615000"><ele>284</ele><time>2008-10-11T14:44:49Z</time></trkpt>
<trkpt lat="46.20561667" lon="5.31635000"><ele>283</ele><time>2008-10-11T14:44:53Z</time></trkpt>
<trkpt lat="46.20573333" lon="5.31660000"><ele>283</ele><time>2008-10-11T14:44:57Z</time></trkpt>
<trkpt lat="46.20605000" lon="5.31726667"><ele>281</ele><time>2008-10-11T14:45:07Z</time></trkpt>
<trkpt lat="46.20615000" lon="5.31756667"><ele>281</ele><time>2008-10-11T14:45:11Z</time></trkpt>
<trkpt lat="46.20626667" lon="5.31803333"><ele>281</ele><time>2008-10-11T14:45:17Z</time></trkpt>
<trkpt lat="46.20630000" lon="5.31833333"><ele>281</ele><time>2008-10-11T14:45:21Z</time></trkpt>
<trkpt lat="46.20633333" lon="5.31863333"><ele>282</ele><time>2008-10-11T14:45:25Z</time></trkpt>
<trkpt lat="46.20640000" lon="5.31893333"><ele>282</ele><time>2008-10-11T14:45:29Z</time></trkpt>
<trkpt lat="46.20648333" lon="5.31930000"><ele>282</ele><time>2008-10-11T14:45:35Z</time></trkpt>
<trkpt lat="46.20666667" lon="5.31935000"><ele>282</ele><time>2008-10-11T14:45:39Z</time></trkpt>
<trkpt lat="46.20686667" lon="5.31935000"><ele>282</ele><time>2008-10-11T14:45:43Z</time></trkpt>
<trkpt lat="46.20720000" lon="5.31936667"><ele>282</ele><time>2008-10-11T14:45:49Z</time></trkpt>
<trkpt lat="46.20736667" lon="5.31951667"><ele>282</ele><time>2008-10-11T14:45:53Z</time></trkpt>
<trkpt lat="46.20733333" lon="5.31981667"><ele>282</ele><time>2008-10-11T14:45:57Z</time></trkpt>
<trkpt lat="46.20733333" lon="5.32013333"><ele>282</ele><time>2008-10-11T14:46:01Z</time></trkpt>
<trkpt lat="46.20751667" lon="5.32030000"><ele>282</ele><time>2008-10-11T14:46:05Z</time></trkpt>
<trkpt lat="46.20771667" lon="5.32033333"><ele>282</ele><time>2008-10-11T14:46:09Z</time></trkpt>
<trkpt lat="46.20793333" lon="5.32040000"><ele>282</ele><time>2008-10-11T14:46:13Z</time></trkpt>
<trkpt lat="46.20808333" lon="5.32060000"><ele>282</ele><time>2008-10-11T14:46:17Z</time></trkpt>
<trkpt lat="46.20816667" lon="5.32090000"><ele>282</ele><time>2008-10-11T14:46:21Z</time></trkpt>
<trkpt lat="46.20818333" lon="5.32121667"><ele>282</ele><time>2008-10-11T14:46:25Z</time></trkpt>
<trkpt lat="46.20815000" lon="5.32156667"><ele>283</ele><time>2008-10-11T14:46:29Z</time></trkpt>
<trkpt lat="46.20810000" lon="5.32188333"><ele>283</ele><time>2008-10-11T14:46:33Z</time></trkpt>
<trkpt lat="46.20803333" lon="5.32218333"><ele>284</ele><time>2008-10-11T14:46:37Z</time></trkpt>
<trkpt lat="46.20798333" lon="5.32246667"><ele>284</ele><time>2008-10-11T14:46:41Z</time></trkpt>
<trkpt lat="46.20801667" lon="5.32276667"><ele>284</ele><time>2008-10-11T14:46:45Z</time></trkpt>
<trkpt lat="46.20803333" lon="5.32306667"><ele>284</ele><time>2008-10-11T14:46:49Z</time></trkpt>
<trkpt lat="46.20800000" lon="5.32335000"><ele>285</ele><time>2008-10-11T14:46:53Z</time></trkpt>
<trkpt lat="46.20791667" lon="5.32391667"><ele>286</ele><time>2008-10-11T14:47:01Z</time></trkpt>
<trkpt lat="46.20791667" lon="5.32420000"><ele>286</ele><time>2008-10-11T14:47:05Z</time></trkpt>
<trkpt lat="46.20790000" lon="5.32446667"><ele>286</ele><time>2008-10-11T14:47:09Z</time></trkpt>
<trkpt lat="46.20790000" lon="5.32470000"><ele>287</ele><time>2008-10-11T14:47:13Z</time></trkpt>
<trkpt lat="46.20793333" lon="5.32495000"><ele>287</ele><time>2008-10-11T14:47:19Z</time></trkpt>
<trkpt lat="46.20783333" lon="5.32523333"><ele>287</ele><time>2008-10-11T14:47:37Z</time></trkpt>
<trkpt lat="46.20771667" lon="5.32535000"><ele>287</ele><time>2008-10-11T14:47:41Z</time></trkpt>
<trkpt lat="46.20761667" lon="5.32550000"><ele>287</ele><time>2008-10-11T14:47:45Z</time></trkpt>
<trkpt lat="46.20756667" lon="5.32568333"><ele>287</ele><time>2008-10-11T14:47:49Z</time></trkpt>
<trkpt lat="46.20755000" lon="5.32588333"><ele>288</ele><time>2008-10-11T14:47:53Z</time></trkpt>
<trkpt lat="46.20760000" lon="5.32615000"><ele>288</ele><time>2008-10-11T14:47:59Z</time></trkpt>
<trkpt lat="46.20761667" lon="5.32638333"><ele>288</ele><time>2008-10-11T14:48:03Z</time></trkpt>
<trkpt lat="46.20761667" lon="5.32663333"><ele>288</ele><time>2008-10-11T14:48:07Z</time></trkpt>
<trkpt lat="46.20758333" lon="5.32688333"><ele>288</ele><time>2008-10-11T14:48:11Z</time></trkpt>
<trkpt lat="46.20756667" lon="5.32713333"><ele>288</ele><time>2008-10-11T14:48:15Z</time></trkpt>
<trkpt lat="46.20751667" lon="5.32735000"><ele>288</ele><time>2008-10-11T14:48:19Z</time></trkpt>
<trkpt lat="46.20748333" lon="5.32758333"><ele>288</ele><time>2008-10-11T14:48:23Z</time></trkpt>
<trkpt lat="46.20755000" lon="5.32780000"><ele>288</ele><time>2008-10-11T14:48:29Z</time></trkpt>
<trkpt lat="46.20770000" lon="5.32775000"><ele>289</ele><time>2008-10-11T14:48:33Z</time></trkpt>
<trkpt lat="46.20790000" lon="5.32770000"><ele>289</ele><time>2008-10-11T14:48:39Z</time></trkpt>
<trkpt lat="46.20806667" lon="5.32770000"><ele>289</ele><time>2008-10-11T14:48:43Z</time></trkpt>
<trkpt lat="46.20823333" lon="5.32771667"><ele>290</ele><time>2008-10-11T14:48:48Z</time></trkpt>
<trkpt lat="46.20856667" lon="5.32773333"><ele>290</ele><time>2008-10-11T14:48:56Z</time></trkpt>
<trkpt lat="46.20871667" lon="5.32770000"><ele>291</ele><time>2008-10-11T14:49:00Z</time></trkpt>
<trkpt lat="46.20888333" lon="5.32761667"><ele>291</ele><time>2008-10-11T14:49:04Z</time></trkpt>
<trkpt lat="46.20903333" lon="5.32746667"><ele>291</ele><time>2008-10-11T14:49:08Z</time></trkpt>
<trkpt lat="46.20920000" lon="5.32735000"><ele>291</ele><time>2008-10-11T14:49:12Z</time></trkpt>
<trkpt lat="46.20938333" lon="5.32731667"><ele>291</ele><time>2008-10-11T14:49:16Z</time></trkpt>
<trkpt lat="46.20956667" lon="5.32736667"><ele>292</ele><time>2008-10-11T14:49:20Z</time></trkpt>
<trkpt lat="46.20975000" lon="5.32745000"><ele>292</ele><time>2008-10-11T14:49:24Z</time></trkpt>
<trkpt lat="46.20993333" lon="5.32751667"><ele>293</ele><time>2008-10-11T14:49:28Z</time></trkpt>
<trkpt lat="46.21010000" lon="5.32756667"><ele>293</ele><time>2008-10-11T14:49:32Z</time></trkpt>
<trkpt lat="46.21028333" lon="5.32758333"><ele>294</ele><time>2008-10-11T14:49:36Z</time></trkpt>
<trkpt lat="46.21046667" lon="5.32760000"><ele>294</ele><time>2008-10-11T14:49:40Z</time></trkpt>
<trkpt lat="46.21063333" lon="5.32758333"><ele>294</ele><time>2008-10-11T14:49:44Z</time></trkpt>
<trkpt lat="46.21091667" lon="5.32755000"><ele>295</ele><time>2008-10-11T14:49:50Z</time></trkpt>
<trkpt lat="46.21111667" lon="5.32758333"><ele>295</ele><time>2008-10-11T14:49:54Z</time></trkpt>
<trkpt lat="46.21131667" lon="5.32761667"><ele>295</ele><time>2008-10-11T14:49:58Z</time></trkpt>
<trkpt lat="46.21151667" lon="5.32768333"><ele>296</ele><time>2008-10-11T14:50:02Z</time></trkpt>
<trkpt lat="46.21233333" lon="5.32800000"><ele>297</ele><time>2008-10-11T14:50:22Z</time></trkpt>
<trkpt lat="46.21240000" lon="5.32818333"><ele>297</ele><time>2008-10-11T14:50:28Z</time></trkpt>
<trkpt lat="46.21243333" lon="5.32841667"><ele>298</ele><time>2008-10-11T14:50:32Z</time></trkpt>
<trkpt lat="46.21246667" lon="5.32865000"><ele>298</ele><time>2008-10-11T14:50:36Z</time></trkpt>
<trkpt lat="46.21251667" lon="5.32886667"><ele>299</ele><time>2008-10-11T14:50:40Z</time></trkpt>
<trkpt lat="46.21266667" lon="5.32886667"><ele>300</ele><time>2008-10-11T14:50:46Z</time></trkpt>
<trkpt lat="46.21278333" lon="5.32873333"><ele>300</ele><time>2008-10-11T14:50:52Z</time></trkpt>
<trkpt lat="46.21298333" lon="5.32853333"><ele>300</ele><time>2008-10-11T14:51:00Z</time></trkpt>
<trkpt lat="46.21311667" lon="5.32843333"><ele>300</ele><time>2008-10-11T14:51:04Z</time></trkpt>
<trkpt lat="46.21325000" lon="5.32835000"><ele>300</ele><time>2008-10-11T14:51:08Z</time></trkpt>
<trkpt lat="46.21350000" lon="5.32818333"><ele>300</ele><time>2008-10-11T14:51:14Z</time></trkpt>
<trkpt lat="46.21365000" lon="5.32786667"><ele>299</ele><time>2008-10-11T14:51:18Z</time></trkpt>
<trkpt lat="46.21375000" lon="5.32768333"><ele>298</ele><time>2008-10-11T14:51:20Z</time></trkpt>
<trkpt lat="46.21423333" lon="5.32681667"><ele>295</ele><time>2008-10-11T14:51:30Z</time></trkpt>
<trkpt lat="46.21440000" lon="5.32685000"><ele>295</ele><time>2008-10-11T14:51:34Z</time></trkpt>
<trkpt lat="46.21458333" lon="5.32700000"><ele>296</ele><time>2008-10-11T14:51:38Z</time></trkpt>
<trkpt lat="46.21473333" lon="5.32710000"><ele>296</ele><time>2008-10-11T14:51:42Z</time></trkpt>
<trkpt lat="46.21488333" lon="5.32721667"><ele>296</ele><time>2008-10-11T14:51:44Z</time></trkpt>
<trkpt lat="46.21521667" lon="5.32745000"><ele>296</ele><time>2008-10-11T14:51:50Z</time></trkpt>
<trkpt lat="46.21553333" lon="5.32766667"><ele>296</ele><time>2008-10-11T14:51:56Z</time></trkpt>
<trkpt lat="46.21576667" lon="5.32781667"><ele>297</ele><time>2008-10-11T14:52:00Z</time></trkpt>
<trkpt lat="46.21601667" lon="5.32783333"><ele>296</ele><time>2008-10-11T14:52:04Z</time></trkpt>
<trkpt lat="46.21626667" lon="5.32780000"><ele>296</ele><time>2008-10-11T14:52:08Z</time></trkpt>
<trkpt lat="46.21651667" lon="5.32771667"><ele>296</ele><time>2008-10-11T14:52:12Z</time></trkpt>
<trkpt lat="46.21678333" lon="5.32765000"><ele>296</ele><time>2008-10-11T14:52:16Z</time></trkpt>
<trkpt lat="46.21721667" lon="5.32758333"><ele>296</ele><time>2008-10-11T14:52:22Z</time></trkpt>
<trkpt lat="46.21788333" lon="5.32748333"><ele>296</ele><time>2008-10-11T14:52:30Z</time></trkpt>
<trkpt lat="46.21805000" lon="5.32743333"><ele>296</ele><time>2008-10-11T14:52:32Z</time></trkpt>
<trkpt lat="46.21871667" lon="5.32723333"><ele>294</ele><time>2008-10-11T14:52:40Z</time></trkpt>
<trkpt lat="46.21888333" lon="5.32720000"><ele>294</ele><time>2008-10-11T14:52:42Z</time></trkpt>
<trkpt lat="46.21906667" lon="5.32720000"><ele>293</ele><time>2008-10-11T14:52:44Z</time></trkpt>
<trkpt lat="46.21958333" lon="5.32723333"><ele>292</ele><time>2008-10-11T14:52:50Z</time></trkpt>
<trkpt lat="46.21976667" lon="5.32725000"><ele>292</ele><time>2008-10-11T14:52:52Z</time></trkpt>
<trkpt lat="46.21993333" lon="5.32728333"><ele>291</ele><time>2008-10-11T14:52:54Z</time></trkpt>
<trkpt lat="46.22010000" lon="5.32730000"><ele>291</ele><time>2008-10-11T14:52:56Z</time></trkpt>
<trkpt lat="46.22028333" lon="5.32728333"><ele>290</ele><time>2008-10-11T14:52:58Z</time></trkpt>
<trkpt lat="46.22043333" lon="5.32721667"><ele>290</ele><time>2008-10-11T14:53:00Z</time></trkpt>
<trkpt lat="46.22060000" lon="5.32711667"><ele>290</ele><time>2008-10-11T14:53:02Z</time></trkpt>
<trkpt lat="46.22075000" lon="5.32698333"><ele>289</ele><time>2008-10-11T14:53:04Z</time></trkpt>
<trkpt lat="46.22120000" lon="5.32663333"><ele>287</ele><time>2008-10-11T14:53:10Z</time></trkpt>
<trkpt lat="46.22138333" lon="5.32660000"><ele>287</ele><time>2008-10-11T14:53:12Z</time></trkpt>
<trkpt lat="46.22156667" lon="5.32658333"><ele>286</ele><time>2008-10-11T14:53:14Z</time></trkpt>
<trkpt lat="46.22193333" lon="5.32651667"><ele>286</ele><time>2008-10-11T14:53:18Z</time></trkpt>
<trkpt lat="46.22248333" lon="5.32636667"><ele>285</ele><time>2008-10-11T14:53:24Z</time></trkpt>
<trkpt lat="46.22286667" lon="5.32626667"><ele>282</ele><time>2008-10-11T14:53:28Z</time></trkpt>
<trkpt lat="46.22306667" lon="5.32628333"><ele>282</ele><time>2008-10-11T14:53:30Z</time></trkpt>
<trkpt lat="46.22326667" lon="5.32631667"><ele>281</ele><time>2008-10-11T14:53:32Z</time></trkpt>
<trkpt lat="46.22361667" lon="5.32641667"><ele>279</ele><time>2008-10-11T14:53:36Z</time></trkpt>
<trkpt lat="46.22378333" lon="5.32650000"><ele>278</ele><time>2008-10-11T14:53:38Z</time></trkpt>
<trkpt lat="46.22393333" lon="5.32660000"><ele>279</ele><time>2008-10-11T14:53:40Z</time></trkpt>
<trkpt lat="46.22410000" lon="5.32668333"><ele>279</ele><time>2008-10-11T14:53:42Z</time></trkpt>
<trkpt lat="46.22425000" lon="5.32670000"><ele>280</ele><time>2008-10-11T14:53:44Z</time></trkpt>
<trkpt lat="46.22440000" lon="5.32666667"><ele>280</ele><time>2008-10-11T14:53:46Z</time></trkpt>
<trkpt lat="46.22455000" lon="5.32661667"><ele>280</ele><time>2008-10-11T14:53:48Z</time></trkpt>
<trkpt lat="46.22480000" lon="5.32653333"><ele>281</ele><time>2008-10-11T14:53:52Z</time></trkpt>
<trkpt lat="46.22498333" lon="5.32645000"><ele>281</ele><time>2008-10-11T14:53:56Z</time></trkpt>
<trkpt lat="46.22533333" lon="5.32630000"><ele>280</ele><time>2008-10-11T14:54:02Z</time></trkpt>
<trkpt lat="46.22548333" lon="5.32603333"><ele>280</ele><time>2008-10-11T14:54:06Z</time></trkpt>
<trkpt lat="46.22563333" lon="5.32583333"><ele>279</ele><time>2008-10-11T14:54:10Z</time></trkpt>
<trkpt lat="46.22583333" lon="5.32576667"><ele>278</ele><time>2008-10-11T14:54:14Z</time></trkpt>
<trkpt lat="46.22605000" lon="5.32571667"><ele>278</ele><time>2008-10-11T14:54:18Z</time></trkpt>
<trkpt lat="46.22626667" lon="5.32571667"><ele>277</ele><time>2008-10-11T14:54:22Z</time></trkpt>
<trkpt lat="46.22650000" lon="5.32575000"><ele>276</ele><time>2008-10-11T14:54:26Z</time></trkpt>
<trkpt lat="46.22686667" lon="5.32583333"><ele>275</ele><time>2008-10-11T14:54:32Z</time></trkpt>
<trkpt lat="46.22723333" lon="5.32590000"><ele>275</ele><time>2008-10-11T14:54:38Z</time></trkpt>
<trkpt lat="46.22745000" lon="5.32591667"><ele>275</ele><time>2008-10-11T14:54:42Z</time></trkpt>
<trkpt lat="46.22766667" lon="5.32590000"><ele>275</ele><time>2008-10-11T14:54:46Z</time></trkpt>
<trkpt lat="46.22783333" lon="5.32590000"><ele>276</ele><time>2008-10-11T14:54:50Z</time></trkpt>
<trkpt lat="46.22788333" lon="5.32611667"><ele>276</ele><time>2008-10-11T14:54:58Z</time></trkpt>
<trkpt lat="46.22783333" lon="5.32640000"><ele>276</ele><time>2008-10-11T14:55:04Z</time></trkpt>
<trkpt lat="46.22775000" lon="5.32671667"><ele>277</ele><time>2008-10-11T14:55:10Z</time></trkpt>
<trkpt lat="46.22765000" lon="5.32716667"><ele>277</ele><time>2008-10-11T14:55:18Z</time></trkpt>
<trkpt lat="46.22720000" lon="5.32923333"><ele>281</ele><time>2008-10-11T14:55:54Z</time></trkpt>
<trkpt lat="46.22720000" lon="5.32943333"><ele>282</ele><time>2008-10-11T14:55:58Z</time></trkpt>
<trkpt lat="46.22728333" lon="5.32960000"><ele>282</ele><time>2008-10-11T14:56:02Z</time></trkpt>
<trkpt lat="46.22788333" lon="5.33075000"><ele>283</ele><time>2008-10-11T14:56:26Z</time></trkpt>
<trkpt lat="46.22808333" lon="5.33088333"><ele>282</ele><time>2008-10-11T14:56:30Z</time></trkpt>
<trkpt lat="46.22826667" lon="5.33096667"><ele>282</ele><time>2008-10-11T14:56:34Z</time></trkpt>
<trkpt lat="46.22918333" lon="5.33141667"><ele>281</ele><time>2008-10-11T14:56:52Z</time></trkpt>
<trkpt lat="46.22951667" lon="5.33156667"><ele>280</ele><time>2008-10-11T14:56:58Z</time></trkpt>
<trkpt lat="46.22990000" lon="5.33175000"><ele>279</ele><time>2008-10-11T14:57:06Z</time></trkpt>
<trkpt lat="46.22991667" lon="5.33200000"><ele>279</ele><time>2008-10-11T14:57:10Z</time></trkpt>
<trkpt lat="46.22990000" lon="5.33228333"><ele>279</ele><time>2008-10-11T14:57:15Z</time></trkpt>
<trkpt lat="46.22983333" lon="5.33316667"><ele>279</ele><time>2008-10-11T14:57:27Z</time></trkpt>
<trkpt lat="46.22970000" lon="5.33336667"><ele>279</ele><time>2008-10-11T14:57:31Z</time></trkpt>
<trkpt lat="46.22956667" lon="5.33356667"><ele>280</ele><time>2008-10-11T14:57:35Z</time></trkpt>
<trkpt lat="46.22946667" lon="5.33383333"><ele>280</ele><time>2008-10-11T14:57:39Z</time></trkpt>
<trkpt lat="46.22935000" lon="5.33421667"><ele>281</ele><time>2008-10-11T14:57:45Z</time></trkpt>
<trkpt lat="46.22898333" lon="5.33528333"><ele>284</ele><time>2008-10-11T14:58:03Z</time></trkpt>
<trkpt lat="46.22885000" lon="5.33561667"><ele>285</ele><time>2008-10-11T14:58:09Z</time></trkpt>
<trkpt lat="46.22880000" lon="5.33586667"><ele>285</ele><time>2008-10-11T14:58:13Z</time></trkpt>
<trkpt lat="46.22870000" lon="5.33630000"><ele>287</ele><time>2008-10-11T14:58:21Z</time></trkpt>
<trkpt lat="46.22861667" lon="5.33658333"><ele>288</ele><time>2008-10-11T14:58:27Z</time></trkpt>
<trkpt lat="46.22838333" lon="5.33731667"><ele>291</ele><time>2008-10-11T14:58:45Z</time></trkpt>
<trkpt lat="46.22850000" lon="5.33746667"><ele>291</ele><time>2008-10-11T14:58:51Z</time></trkpt>
<trkpt lat="46.22863333" lon="5.33753333"><ele>291</ele><time>2008-10-11T14:58:55Z</time></trkpt>
<trkpt lat="46.22876667" lon="5.33760000"><ele>290</ele><time>2008-10-11T14:58:59Z</time></trkpt>
<trkpt lat="46.22890000" lon="5.33768333"><ele>290</ele><time>2008-10-11T14:59:03Z</time></trkpt>
<trkpt lat="46.22911667" lon="5.33783333"><ele>290</ele><time>2008-10-11T14:59:09Z</time></trkpt>
<trkpt lat="46.22936667" lon="5.33800000"><ele>290</ele><time>2008-10-11T14:59:15Z</time></trkpt>
<trkpt lat="46.22953333" lon="5.33816667"><ele>290</ele><time>2008-10-11T14:59:19Z</time></trkpt>
<trkpt lat="46.22971667" lon="5.33838333"><ele>289</ele><time>2008-10-11T14:59:23Z</time></trkpt>
<trkpt lat="46.23001667" lon="5.33873333"><ele>288</ele><time>2008-10-11T14:59:29Z</time></trkpt>
<trkpt lat="46.23013333" lon="5.33883333"><ele>287</ele><time>2008-10-11T14:59:31Z</time></trkpt>
<trkpt lat="46.23070000" lon="5.33931667"><ele>286</ele><time>2008-10-11T14:59:41Z</time></trkpt>
<trkpt lat="46.23103333" lon="5.33961667"><ele>287</ele><time>2008-10-11T14:59:47Z</time></trkpt>
<trkpt lat="46.23121667" lon="5.33973333"><ele>287</ele><time>2008-10-11T14:59:49Z</time></trkpt>
<trkpt lat="46.23146667" lon="5.33986667"><ele>288</ele><time>2008-10-11T14:59:53Z</time></trkpt>
<trkpt lat="46.23181667" lon="5.34003333"><ele>289</ele><time>2008-10-11T14:59:59Z</time></trkpt>
<trkpt lat="46.23235000" lon="5.34030000"><ele>291</ele><time>2008-10-11T15:00:11Z</time></trkpt>
<trkpt lat="46.23250000" lon="5.34043333"><ele>292</ele><time>2008-10-11T15:00:17Z</time></trkpt>
<trkpt lat="46.23261667" lon="5.34055000"><ele>292</ele><time>2008-10-11T15:12:06Z</time></trkpt>
<trkpt lat="46.23276667" lon="5.34056667"><ele>293</ele><time>2008-10-11T15:12:12Z</time></trkpt>
<trkpt lat="46.23350000" lon="5.34068333"><ele>294</ele><time>2008-10-11T15:12:32Z</time></trkpt>
<trkpt lat="46.23366667" lon="5.34068333"><ele>294</ele><time>2008-10-11T15:12:36Z</time></trkpt>
<trkpt lat="46.23383333" lon="5.34070000"><ele>294</ele><time>2008-10-11T15:12:40Z</time></trkpt>
<trkpt lat="46.23403333" lon="5.34075000"><ele>294</ele><time>2008-10-11T15:12:44Z</time></trkpt>
<trkpt lat="46.23421667" lon="5.34086667"><ele>293</ele><time>2008-10-11T15:12:48Z</time></trkpt>
<trkpt lat="46.23458333" lon="5.34108333"><ele>293</ele><time>2008-10-11T15:12:56Z</time></trkpt>
<trkpt lat="46.23476667" lon="5.34121667"><ele>293</ele><time>2008-10-11T15:13:00Z</time></trkpt>
<trkpt lat="46.23508333" lon="5.34146667"><ele>292</ele><time>2008-10-11T15:13:06Z</time></trkpt>
<trkpt lat="46.23555000" lon="5.34186667"><ele>290</ele><time>2008-10-11T15:13:14Z</time></trkpt>
<trkpt lat="46.23568333" lon="5.34191667"><ele>289</ele><time>2008-10-11T15:13:16Z</time></trkpt>
<trkpt lat="46.23595000" lon="5.34191667"><ele>288</ele><time>2008-10-11T15:13:20Z</time></trkpt>
<trkpt lat="46.23621667" lon="5.34195000"><ele>286</ele><time>2008-10-11T15:13:24Z</time></trkpt>
<trkpt lat="46.23650000" lon="5.34205000"><ele>284</ele><time>2008-10-11T15:13:28Z</time></trkpt>
<trkpt lat="46.23665000" lon="5.34216667"><ele>284</ele><time>2008-10-11T15:13:30Z</time></trkpt>
<trkpt lat="46.23693333" lon="5.34235000"><ele>283</ele><time>2008-10-11T15:13:34Z</time></trkpt>
<trkpt lat="46.23716667" lon="5.34251667"><ele>284</ele><time>2008-10-11T15:13:38Z</time></trkpt>
<trkpt lat="46.23726667" lon="5.34266667"><ele>285</ele><time>2008-10-11T15:13:42Z</time></trkpt>
<trkpt lat="46.23740000" lon="5.34281667"><ele>285</ele><time>2008-10-11T15:13:48Z</time></trkpt>
<trkpt lat="46.23753333" lon="5.34291667"><ele>286</ele><time>2008-10-11T15:13:52Z</time></trkpt>
<trkpt lat="46.23770000" lon="5.34290000"><ele>287</ele><time>2008-10-11T15:13:56Z</time></trkpt>
<trkpt lat="46.23783333" lon="5.34285000"><ele>288</ele><time>2008-10-11T15:14:01Z</time></trkpt>
<trkpt lat="46.23796667" lon="5.34281667"><ele>288</ele><time>2008-10-11T15:14:05Z</time></trkpt>
<trkpt lat="46.23831667" lon="5.34271667"><ele>289</ele><time>2008-10-11T15:14:15Z</time></trkpt>
<trkpt lat="46.23845000" lon="5.34246667"><ele>289</ele><time>2008-10-11T15:14:21Z</time></trkpt>
<trkpt lat="46.23861667" lon="5.34230000"><ele>289</ele><time>2008-10-11T15:14:25Z</time></trkpt>
<trkpt lat="46.23881667" lon="5.34230000"><ele>289</ele><time>2008-10-11T15:14:29Z</time></trkpt>
<trkpt lat="46.23901667" lon="5.34233333"><ele>289</ele><time>2008-10-11T15:14:33Z</time></trkpt>
<trkpt lat="46.23920000" lon="5.34235000"><ele>289</ele><time>2008-10-11T15:14:37Z</time></trkpt>
<trkpt lat="46.23968333" lon="5.34238333"><ele>289</ele><time>2008-10-11T15:14:47Z</time></trkpt>
<trkpt lat="46.23986667" lon="5.34243333"><ele>289</ele><time>2008-10-11T15:14:51Z</time></trkpt>
<trkpt lat="46.24018333" lon="5.34251667"><ele>290</ele><time>2008-10-11T15:14:57Z</time></trkpt>
<trkpt lat="46.24038333" lon="5.34260000"><ele>290</ele><time>2008-10-11T15:15:01Z</time></trkpt>
<trkpt lat="46.24141667" lon="5.34298333"><ele>291</ele><time>2008-10-11T15:15:19Z</time></trkpt>
<trkpt lat="46.24178333" lon="5.34310000"><ele>290</ele><time>2008-10-11T15:15:25Z</time></trkpt>
<trkpt lat="46.24215000" lon="5.34320000"><ele>289</ele><time>2008-10-11T15:15:31Z</time></trkpt>
<trkpt lat="46.24238333" lon="5.34330000"><ele>288</ele><time>2008-10-11T15:15:35Z</time></trkpt>
<trkpt lat="46.24251667" lon="5.34335000"><ele>288</ele><time>2008-10-11T15:15:37Z</time></trkpt>
<trkpt lat="46.24265000" lon="5.34338333"><ele>288</ele><time>2008-10-11T15:15:39Z</time></trkpt>
<trkpt lat="46.24303333" lon="5.34351667"><ele>287</ele><time>2008-10-11T15:15:45Z</time></trkpt>
<trkpt lat="46.24335000" lon="5.34360000"><ele>287</ele><time>2008-10-11T15:15:49Z</time></trkpt>
<trkpt lat="46.24351667" lon="5.34363333"><ele>286</ele><time>2008-10-11T15:15:51Z</time></trkpt>
<trkpt lat="46.24388333" lon="5.34368333"><ele>285</ele><time>2008-10-11T15:15:55Z</time></trkpt>
<trkpt lat="46.24441667" lon="5.34378333"><ele>283</ele><time>2008-10-11T15:16:01Z</time></trkpt>
<trkpt lat="46.24460000" lon="5.34386667"><ele>281</ele><time>2008-10-11T15:16:03Z</time></trkpt>
<trkpt lat="46.24475000" lon="5.34398333"><ele>280</ele><time>2008-10-11T15:16:05Z</time></trkpt>
<trkpt lat="46.24488333" lon="5.34410000"><ele>280</ele><time>2008-10-11T15:16:07Z</time></trkpt>
<trkpt lat="46.24495000" lon="5.34441667"><ele>278</ele><time>2008-10-11T15:16:11Z</time></trkpt>
<trkpt lat="46.24488333" lon="5.34465000"><ele>276</ele><time>2008-10-11T15:16:13Z</time></trkpt>
<trkpt lat="46.24481667" lon="5.34491667"><ele>273</ele><time>2008-10-11T15:16:15Z</time></trkpt>
<trkpt lat="46.24476667" lon="5.34523333"><ele>270</ele><time>2008-10-11T15:16:17Z</time></trkpt>
<trkpt lat="46.24473333" lon="5.34558333"><ele>267</ele><time>2008-10-11T15:16:19Z</time></trkpt>
<trkpt lat="46.24458333" lon="5.34770000"><ele>269</ele><time>2008-10-11T15:16:37Z</time></trkpt>
<trkpt lat="46.24453333" lon="5.34795000"><ele>270</ele><time>2008-10-11T15:16:41Z</time></trkpt>
<trkpt lat="46.24443333" lon="5.34841667"><ele>272</ele><time>2008-10-11T15:16:49Z</time></trkpt>
<trkpt lat="46.24418333" lon="5.34956667"><ele>271</ele><time>2008-10-11T15:17:11Z</time></trkpt>
<trkpt lat="46.24411667" lon="5.34980000"><ele>271</ele><time>2008-10-11T15:17:17Z</time></trkpt>
<trkpt lat="46.24393333" lon="5.34983333"><ele>271</ele><time>2008-10-11T15:17:23Z</time></trkpt>
<trkpt lat="46.24366667" lon="5.34983333"><ele>271</ele><time>2008-10-11T15:17:31Z</time></trkpt>
<trkpt lat="46.24345000" lon="5.34980000"><ele>272</ele><time>2008-10-11T15:17:37Z</time></trkpt>
<trkpt lat="46.24266667" lon="5.34968333"><ele>273</ele><time>2008-10-11T15:17:57Z</time></trkpt>
<trkpt lat="46.24250000" lon="5.34965000"><ele>273</ele><time>2008-10-11T15:18:01Z</time></trkpt>
<trkpt lat="46.24233333" lon="5.34956667"><ele>274</ele><time>2008-10-11T15:18:05Z</time></trkpt>
<trkpt lat="46.24216667" lon="5.34946667"><ele>274</ele><time>2008-10-11T15:18:09Z</time></trkpt>
<trkpt lat="46.24201667" lon="5.34935000"><ele>274</ele><time>2008-10-11T15:18:13Z</time></trkpt>
<trkpt lat="46.24188333" lon="5.34955000"><ele>275</ele><time>2008-10-11T15:18:19Z</time></trkpt>
<trkpt lat="46.24185000" lon="5.34980000"><ele>276</ele><time>2008-10-11T15:18:23Z</time></trkpt>
<trkpt lat="46.24178333" lon="5.35025000"><ele>277</ele><time>2008-10-11T15:18:31Z</time></trkpt>
<trkpt lat="46.24171667" lon="5.35073333"><ele>278</ele><time>2008-10-11T15:18:41Z</time></trkpt>
<trkpt lat="46.24168333" lon="5.35095000"><ele>278</ele><time>2008-10-11T15:18:45Z</time></trkpt>
<trkpt lat="46.24166667" lon="5.35116667"><ele>278</ele><time>2008-10-11T15:18:49Z</time></trkpt>
<trkpt lat="46.24166667" lon="5.35138333"><ele>278</ele><time>2008-10-11T15:18:53Z</time></trkpt>
<trkpt lat="46.24166667" lon="5.35158333"><ele>278</ele><time>2008-10-11T15:18:57Z</time></trkpt>
<trkpt lat="46.24168333" lon="5.35178333"><ele>279</ele><time>2008-10-11T15:19:01Z</time></trkpt>
<trkpt lat="46.24173333" lon="5.35198333"><ele>279</ele><time>2008-10-11T15:19:05Z</time></trkpt>
<trkpt lat="46.24181667" lon="5.35235000"><ele>281</ele><time>2008-10-11T15:19:13Z</time></trkpt>
<trkpt lat="46.24171667" lon="5.35250000"><ele>283</ele><time>2008-10-11T15:19:19Z</time></trkpt>
<trkpt lat="46.24156667" lon="5.35253333"><ele>284</ele><time>2008-10-11T15:19:27Z</time></trkpt>
<trkpt lat="46.24138333" lon="5.35253333"><ele>286</ele><time>2008-10-11T15:19:37Z</time></trkpt>
<trkpt lat="46.24121667" lon="5.35250000"><ele>288</ele><time>2008-10-11T15:19:49Z</time></trkpt>
<trkpt lat="46.24106667" lon="5.35253333"><ele>289</ele><time>2008-10-11T15:20:01Z</time></trkpt>
<trkpt lat="46.24091667" lon="5.35265000"><ele>291</ele><time>2008-10-11T15:20:19Z</time></trkpt>
<trkpt lat="46.24085000" lon="5.35283333"><ele>293</ele><time>2008-10-11T15:20:31Z</time></trkpt>
<trkpt lat="46.24088333" lon="5.35306667"><ele>297</ele><time>2008-10-11T15:20:49Z</time></trkpt>
<trkpt lat="46.24088333" lon="5.35328333"><ele>300</ele><time>2008-10-11T15:20:59Z</time></trkpt>
<trkpt lat="46.24088333" lon="5.35350000"><ele>303</ele><time>2008-10-11T15:21:11Z</time></trkpt>
<trkpt lat="46.24095000" lon="5.35368333"><ele>308</ele><time>2008-10-11T15:21:23Z</time></trkpt>
<trkpt lat="46.24105000" lon="5.35383333"><ele>311</ele><time>2008-10-11T15:21:35Z</time></trkpt>
<trkpt lat="46.24121667" lon="5.35411667"><ele>314</ele><time>2008-10-11T15:21:53Z</time></trkpt>
<trkpt lat="46.24130000" lon="5.35430000"><ele>315</ele><time>2008-10-11T15:22:03Z</time></trkpt>
<trkpt lat="46.24136667" lon="5.35450000"><ele>317</ele><time>2008-10-11T15:22:11Z</time></trkpt>
<trkpt lat="46.24145000" lon="5.35480000"><ele>319</ele><time>2008-10-11T15:22:23Z</time></trkpt>
<trkpt lat="46.24151667" lon="5.35501667"><ele>321</ele><time>2008-10-11T15:22:31Z</time></trkpt>
<trkpt lat="46.24160000" lon="5.35531667"><ele>322</ele><time>2008-10-11T15:22:48Z</time></trkpt>
<trkpt lat="46.24166667" lon="5.35555000"><ele>324</ele><time>2008-10-11T15:22:56Z</time></trkpt>
<trkpt lat="46.24173333" lon="5.35580000"><ele>326</ele><time>2008-10-11T15:23:06Z</time></trkpt>
<trkpt lat="46.24181667" lon="5.35600000"><ele>326</ele><time>2008-10-11T15:23:14Z</time></trkpt>
<trkpt lat="46.24193333" lon="5.35621667"><ele>326</ele><time>2008-10-11T15:23:24Z</time></trkpt>
<trkpt lat="46.24203333" lon="5.35643333"><ele>326</ele><time>2008-10-11T15:23:32Z</time></trkpt>
<trkpt lat="46.24216667" lon="5.35663333"><ele>326</ele><time>2008-10-11T15:23:38Z</time></trkpt>
<trkpt lat="46.24230000" lon="5.35686667"><ele>327</ele><time>2008-10-11T15:23:44Z</time></trkpt>
<trkpt lat="46.24241667" lon="5.35701667"><ele>328</ele><time>2008-10-11T15:23:50Z</time></trkpt>
<trkpt lat="46.24255000" lon="5.35716667"><ele>327</ele><time>2008-10-11T15:23:56Z</time></trkpt>
<trkpt lat="46.24270000" lon="5.35733333"><ele>326</ele><time>2008-10-11T15:24:02Z</time></trkpt>
<trkpt lat="46.24281667" lon="5.35750000"><ele>327</ele><time>2008-10-11T15:24:08Z</time></trkpt>
<trkpt lat="46.24290000" lon="5.35766667"><ele>328</ele><time>2008-10-11T15:24:14Z</time></trkpt>
<trkpt lat="46.24301667" lon="5.35785000"><ele>328</ele><time>2008-10-11T15:24:22Z</time></trkpt>
<trkpt lat="46.24316667" lon="5.35810000"><ele>329</ele><time>2008-10-11T15:24:32Z</time></trkpt>
<trkpt lat="46.24326667" lon="5.35825000"><ele>330</ele><time>2008-10-11T15:24:38Z</time></trkpt>
<trkpt lat="46.24341667" lon="5.35848333"><ele>331</ele><time>2008-10-11T15:24:46Z</time></trkpt>
<trkpt lat="46.24363333" lon="5.35883333"><ele>333</ele><time>2008-10-11T15:24:56Z</time></trkpt>
<trkpt lat="46.24373333" lon="5.35896667"><ele>334</ele><time>2008-10-11T15:25:00Z</time></trkpt>
<trkpt lat="46.24391667" lon="5.35925000"><ele>336</ele><time>2008-10-11T15:25:10Z</time></trkpt>
<trkpt lat="46.24405000" lon="5.35941667"><ele>338</ele><time>2008-10-11T15:25:18Z</time></trkpt>
<trkpt lat="46.24416667" lon="5.35955000"><ele>339</ele><time>2008-10-11T15:25:24Z</time></trkpt>
<trkpt lat="46.24428333" lon="5.35971667"><ele>341</ele><time>2008-10-11T15:25:32Z</time></trkpt>
<trkpt lat="46.24441667" lon="5.35983333"><ele>342</ele><time>2008-10-11T15:25:40Z</time></trkpt>
<trkpt lat="46.24451667" lon="5.36000000"><ele>344</ele><time>2008-10-11T15:25:48Z</time></trkpt>
<trkpt lat="46.24461667" lon="5.36015000"><ele>346</ele><time>2008-10-11T15:25:58Z</time></trkpt>
<trkpt lat="46.24471667" lon="5.36028333"><ele>348</ele><time>2008-10-11T15:26:06Z</time></trkpt>
<trkpt lat="46.24483333" lon="5.36043333"><ele>350</ele><time>2008-10-11T15:26:16Z</time></trkpt>
<trkpt lat="46.24495000" lon="5.36058333"><ele>352</ele><time>2008-10-11T15:26:26Z</time></trkpt>
<trkpt lat="46.24506667" lon="5.36073333"><ele>353</ele><time>2008-10-11T15:26:34Z</time></trkpt>
<trkpt lat="46.24518333" lon="5.36088333"><ele>355</ele><time>2008-10-11T15:26:42Z</time></trkpt>
<trkpt lat="46.24531667" lon="5.36103333"><ele>357</ele><time>2008-10-11T15:26:50Z</time></trkpt>
<trkpt lat="46.24541667" lon="5.36116667"><ele>359</ele><time>2008-10-11T15:26:58Z</time></trkpt>
<trkpt lat="46.24553333" lon="5.36130000"><ele>360</ele><time>2008-10-11T15:27:06Z</time></trkpt>
<trkpt lat="46.24563333" lon="5.36145000"><ele>362</ele><time>2008-10-11T15:27:14Z</time></trkpt>
<trkpt lat="46.24573333" lon="5.36165000"><ele>364</ele><time>2008-10-11T15:27:24Z</time></trkpt>
<trkpt lat="46.24583333" lon="5.36191667"><ele>367</ele><time>2008-10-11T15:27:42Z</time></trkpt>
<trkpt lat="46.24593333" lon="5.36210000"><ele>368</ele><time>2008-10-11T15:27:54Z</time></trkpt>
<trkpt lat="46.24601667" lon="5.36226667"><ele>369</ele><time>2008-10-11T15:28:04Z</time></trkpt>
<trkpt lat="46.24613333" lon="5.36246667"><ele>371</ele><time>2008-10-11T15:28:26Z</time></trkpt>
<trkpt lat="46.24621667" lon="5.36266667"><ele>373</ele><time>2008-10-11T15:28:38Z</time></trkpt>
<trkpt lat="46.24630000" lon="5.36285000"><ele>375</ele><time>2008-10-11T15:28:50Z</time></trkpt>
<trkpt lat="46.24640000" lon="5.36301667"><ele>377</ele><time>2008-10-11T15:29:00Z</time></trkpt>
<trkpt lat="46.24650000" lon="5.36315000"><ele>378</ele><time>2008-10-11T15:29:10Z</time></trkpt>
<trkpt lat="46.24663333" lon="5.36331667"><ele>379</ele><time>2008-10-11T15:29:22Z</time></trkpt>
<trkpt lat="46.24673333" lon="5.36348333"><ele>381</ele><time>2008-10-11T15:29:32Z</time></trkpt>
<trkpt lat="46.24683333" lon="5.36363333"><ele>384</ele><time>2008-10-11T15:29:40Z</time></trkpt>
<trkpt lat="46.24693333" lon="5.36376667"><ele>386</ele><time>2008-10-11T15:29:48Z</time></trkpt>
<trkpt lat="46.24703333" lon="5.36390000"><ele>388</ele><time>2008-10-11T15:29:58Z</time></trkpt>
<trkpt lat="46.24725000" lon="5.36421667"><ele>392</ele><time>2008-10-11T15:30:18Z</time></trkpt>
<trkpt lat="46.24735000" lon="5.36438333"><ele>394</ele><time>2008-10-11T15:30:30Z</time></trkpt>
<trkpt lat="46.24746667" lon="5.36451667"><ele>396</ele><time>2008-10-11T15:30:42Z</time></trkpt>
<trkpt lat="46.24758333" lon="5.36461667"><ele>397</ele><time>2008-10-11T15:30:52Z</time></trkpt>
<trkpt lat="46.24773333" lon="5.36475000"><ele>399</ele><time>2008-10-11T15:31:03Z</time></trkpt>
<trkpt lat="46.24785000" lon="5.36486667"><ele>401</ele><time>2008-10-11T15:31:13Z</time></trkpt>
<trkpt lat="46.24800000" lon="5.36493333"><ele>402</ele><time>2008-10-11T15:31:23Z</time></trkpt>
<trkpt lat="46.24818333" lon="5.36506667"><ele>403</ele><time>2008-10-11T15:31:35Z</time></trkpt>
<trkpt lat="46.24836667" lon="5.36521667"><ele>405</ele><time>2008-10-11T15:31:45Z</time></trkpt>
<trkpt lat="46.24850000" lon="5.36535000"><ele>406</ele><time>2008-10-11T15:31:53Z</time></trkpt>
<trkpt lat="46.24860000" lon="5.36550000"><ele>408</ele><time>2008-10-11T15:32:03Z</time></trkpt>
<trkpt lat="46.24870000" lon="5.36566667"><ele>411</ele><time>2008-10-11T15:32:11Z</time></trkpt>
<trkpt lat="46.24881667" lon="5.36578333"><ele>412</ele><time>2008-10-11T15:32:19Z</time></trkpt>
<trkpt lat="46.24893333" lon="5.36588333"><ele>413</ele><time>2008-10-11T15:32:27Z</time></trkpt>
<trkpt lat="46.24905000" lon="5.36605000"><ele>414</ele><time>2008-10-11T15:32:35Z</time></trkpt>
<trkpt lat="46.24916667" lon="5.36618333"><ele>414</ele><time>2008-10-11T15:32:43Z</time></trkpt>
<trkpt lat="46.24928333" lon="5.36635000"><ele>415</ele><time>2008-10-11T15:32:51Z</time></trkpt>
<trkpt lat="46.24935000" lon="5.36655000"><ele>416</ele><time>2008-10-11T15:32:59Z</time></trkpt>
<trkpt lat="46.24943333" lon="5.36671667"><ele>415</ele><time>2008-10-11T15:34:41Z</time></trkpt>
<trkpt lat="46.24950000" lon="5.36690000"><ele>414</ele><time>2008-10-11T15:34:45Z</time></trkpt>
<trkpt lat="46.24955000" lon="5.36713333"><ele>413</ele><time>2008-10-11T15:34:49Z</time></trkpt>
<trkpt lat="46.24956667" lon="5.36743333"><ele>414</ele><time>2008-10-11T15:34:53Z</time></trkpt>
<trkpt lat="46.24956667" lon="5.36785000"><ele>414</ele><time>2008-10-11T15:34:59Z</time></trkpt>
<trkpt lat="46.24950000" lon="5.36806667"><ele>414</ele><time>2008-10-11T15:35:05Z</time></trkpt>
<trkpt lat="46.24963333" lon="5.36823333"><ele>416</ele><time>2008-10-11T15:35:13Z</time></trkpt>
<trkpt lat="46.24976667" lon="5.36831667"><ele>418</ele><time>2008-10-11T15:35:19Z</time></trkpt>
<trkpt lat="46.24988333" lon="5.36841667"><ele>420</ele><time>2008-10-11T15:35:27Z</time></trkpt>
<trkpt lat="46.25001667" lon="5.36851667"><ele>422</ele><time>2008-10-11T15:35:35Z</time></trkpt>
<trkpt lat="46.25018333" lon="5.36861667"><ele>425</ele><time>2008-10-11T15:35:45Z</time></trkpt>
<trkpt lat="46.25033333" lon="5.36871667"><ele>426</ele><time>2008-10-11T15:35:55Z</time></trkpt>
<trkpt lat="46.25048333" lon="5.36878333"><ele>428</ele><time>2008-10-11T15:36:05Z</time></trkpt>
<trkpt lat="46.25065000" lon="5.36885000"><ele>430</ele><time>2008-10-11T15:36:15Z</time></trkpt>
<trkpt lat="46.25078333" lon="5.36891667"><ele>431</ele><time>2008-10-11T15:36:23Z</time></trkpt>
<trkpt lat="46.25093333" lon="5.36898333"><ele>432</ele><time>2008-10-11T15:36:31Z</time></trkpt>
<trkpt lat="46.25111667" lon="5.36905000"><ele>434</ele><time>2008-10-11T15:36:41Z</time></trkpt>
<trkpt lat="46.25130000" lon="5.36911667"><ele>435</ele><time>2008-10-11T15:36:51Z</time></trkpt>
<trkpt lat="46.25145000" lon="5.36915000"><ele>437</ele><time>2008-10-11T15:36:59Z</time></trkpt>
<trkpt lat="46.25160000" lon="5.36920000"><ele>438</ele><time>2008-10-11T15:37:07Z</time></trkpt>
<trkpt lat="46.25175000" lon="5.36928333"><ele>440</ele><time>2008-10-11T15:37:15Z</time></trkpt>
<trkpt lat="46.25190000" lon="5.36935000"><ele>441</ele><time>2008-10-11T15:37:23Z</time></trkpt>
<trkpt lat="46.25205000" lon="5.36938333"><ele>443</ele><time>2008-10-11T15:37:31Z</time></trkpt>
<trkpt lat="46.25226667" lon="5.36943333"><ele>444</ele><time>2008-10-11T15:37:43Z</time></trkpt>
<trkpt lat="46.25240000" lon="5.36948333"><ele>445</ele><time>2008-10-11T15:37:51Z</time></trkpt>
<trkpt lat="46.25238333" lon="5.36968333"><ele>444</ele><time>2008-10-11T15:37:57Z</time></trkpt>
<trkpt lat="46.25230000" lon="5.37001667"><ele>442</ele><time>2008-10-11T15:38:01Z</time></trkpt>
<trkpt lat="46.25218333" lon="5.37050000"><ele>439</ele><time>2008-10-11T15:38:07Z</time></trkpt>
<trkpt lat="46.25201667" lon="5.37060000"><ele>442</ele><time>2008-10-11T15:38:13Z</time></trkpt>
<trkpt lat="46.25180000" lon="5.37058333"><ele>443</ele><time>2008-10-11T15:38:19Z</time></trkpt>
<trkpt lat="46.25155000" lon="5.37060000"><ele>443</ele><time>2008-10-11T15:38:39Z</time></trkpt>
<trkpt lat="46.25140000" lon="5.37061667"><ele>442</ele><time>2008-10-11T15:38:43Z</time></trkpt>
<trkpt lat="46.25125000" lon="5.37056667"><ele>440</ele><time>2008-10-11T15:38:49Z</time></trkpt>
<trkpt lat="46.25108333" lon="5.37068333"><ele>441</ele><time>2008-10-11T15:38:55Z</time></trkpt>
<trkpt lat="46.25095000" lon="5.37073333"><ele>440</ele><time>2008-10-11T15:38:59Z</time></trkpt>
<trkpt lat="46.25081667" lon="5.37078333"><ele>440</ele><time>2008-10-11T15:39:03Z</time></trkpt>
<trkpt lat="46.25065000" lon="5.37078333"><ele>439</ele><time>2008-10-11T15:39:07Z</time></trkpt>
<trkpt lat="46.25045000" lon="5.37083333"><ele>438</ele><time>2008-10-11T15:39:11Z</time></trkpt>
<trkpt lat="46.25031667" lon="5.37095000"><ele>438</ele><time>2008-10-11T15:39:15Z</time></trkpt>
<trkpt lat="46.25018333" lon="5.37101667"><ele>437</ele><time>2008-10-11T15:39:21Z</time></trkpt>
<trkpt lat="46.25003333" lon="5.37106667"><ele>436</ele><time>2008-10-11T15:39:30Z</time></trkpt>
<trkpt lat="46.25010000" lon="5.37131667"><ele>438</ele><time>2008-10-11T15:39:38Z</time></trkpt>
<trkpt lat="46.25010000" lon="5.37155000"><ele>437</ele><time>2008-10-11T15:39:42Z</time></trkpt>
<trkpt lat="46.25001667" lon="5.37178333"><ele>433</ele><time>2008-10-11T15:39:48Z</time></trkpt>
<trkpt lat="46.24990000" lon="5.37198333"><ele>427</ele><time>2008-10-11T15:39:54Z</time></trkpt>
<trkpt lat="46.24985000" lon="5.37223333"><ele>423</ele><time>2008-10-11T15:40:00Z</time></trkpt>
<trkpt lat="46.24985000" lon="5.37250000"><ele>420</ele><time>2008-10-11T15:40:06Z</time></trkpt>
<trkpt lat="46.24986667" lon="5.37273333"><ele>419</ele><time>2008-10-11T15:40:10Z</time></trkpt>
<trkpt lat="46.24988333" lon="5.37293333"><ele>418</ele><time>2008-10-11T15:40:14Z</time></trkpt>
<trkpt lat="46.24995000" lon="5.37318333"><ele>419</ele><time>2008-10-11T15:40:20Z</time></trkpt>
<trkpt lat="46.25003333" lon="5.37340000"><ele>420</ele><time>2008-10-11T15:40:26Z</time></trkpt>
<trkpt lat="46.25018333" lon="5.37348333"><ele>420</ele><time>2008-10-11T15:40:36Z</time></trkpt>
<trkpt lat="46.25026667" lon="5.37365000"><ele>418</ele><time>2008-10-11T15:40:46Z</time></trkpt>
<trkpt lat="46.25040000" lon="5.37375000"><ele>417</ele><time>2008-10-11T15:40:54Z</time></trkpt>
<trkpt lat="46.25055000" lon="5.37373333"><ele>418</ele><time>2008-10-11T15:41:14Z</time></trkpt>
<trkpt lat="46.25070000" lon="5.37370000"><ele>418</ele><time>2008-10-11T15:41:36Z</time></trkpt>
<trkpt lat="46.25086667" lon="5.37371667"><ele>416</ele><time>2008-10-11T15:41:46Z</time></trkpt>
<trkpt lat="46.25108333" lon="5.37376667"><ele>412</ele><time>2008-10-11T15:42:04Z</time></trkpt>
<trkpt lat="46.25125000" lon="5.37380000"><ele>408</ele><time>2008-10-11T15:42:28Z</time></trkpt>
<trkpt lat="46.25141667" lon="5.37386667"><ele>404</ele><time>2008-10-11T15:42:34Z</time></trkpt>
<trkpt lat="46.25161667" lon="5.37376667"><ele>401</ele><time>2008-10-11T15:42:40Z</time></trkpt>
<trkpt lat="46.25175000" lon="5.37370000"><ele>399</ele><time>2008-10-11T15:42:44Z</time></trkpt>
<trkpt lat="46.25188333" lon="5.37366667"><ele>396</ele><time>2008-10-11T15:42:48Z</time></trkpt>
<trkpt lat="46.25201667" lon="5.37358333"><ele>394</ele><time>2008-10-11T15:42:54Z</time></trkpt>
<trkpt lat="46.25220000" lon="5.37345000"><ele>391</ele><time>2008-10-11T15:43:02Z</time></trkpt>
<trkpt lat="46.25233333" lon="5.37335000"><ele>389</ele><time>2008-10-11T15:43:06Z</time></trkpt>
<trkpt lat="46.25261667" lon="5.37320000"><ele>384</ele><time>2008-10-11T15:43:14Z</time></trkpt>
<trkpt lat="46.25276667" lon="5.37311667"><ele>381</ele><time>2008-10-11T15:43:18Z</time></trkpt>
<trkpt lat="46.25290000" lon="5.37301667"><ele>379</ele><time>2008-10-11T15:43:22Z</time></trkpt>
<trkpt lat="46.25303333" lon="5.37291667"><ele>377</ele><time>2008-10-11T15:43:26Z</time></trkpt>
<trkpt lat="46.25318333" lon="5.37280000"><ele>375</ele><time>2008-10-11T15:43:32Z</time></trkpt>
<trkpt lat="46.25321667" lon="5.37300000"><ele>371</ele><time>2008-10-11T15:44:12Z</time></trkpt>
<trkpt lat="46.25310000" lon="5.37310000"><ele>372</ele><time>2008-10-11T15:46:06Z</time></trkpt>
<trkpt lat="46.25298333" lon="5.37326667"><ele>372</ele><time>2008-10-11T15:46:18Z</time></trkpt>
<trkpt lat="46.25288333" lon="5.37340000"><ele>371</ele><time>2008-10-11T15:47:04Z</time></trkpt>
<trkpt lat="46.25275000" lon="5.37353333"><ele>373</ele><time>2008-10-11T15:47:10Z</time></trkpt>
<trkpt lat="46.25265000" lon="5.37368333"><ele>374</ele><time>2008-10-11T15:47:18Z</time></trkpt>
<trkpt lat="46.25260000" lon="5.37390000"><ele>372</ele><time>2008-10-11T15:47:26Z</time></trkpt>
<trkpt lat="46.25260000" lon="5.37411667"><ele>370</ele><time>2008-10-11T15:47:32Z</time></trkpt>
<trkpt lat="46.25268333" lon="5.37436667"><ele>371</ele><time>2008-10-11T15:47:50Z</time></trkpt>
<trkpt lat="46.25273333" lon="5.37456667"><ele>372</ele><time>2008-10-11T15:48:03Z</time></trkpt>
<trkpt lat="46.25278333" lon="5.37475000"><ele>373</ele><time>2008-10-11T15:48:21Z</time></trkpt>
<trkpt lat="46.25285000" lon="5.37501667"><ele>375</ele><time>2008-10-11T15:48:29Z</time></trkpt>
<trkpt lat="46.25295000" lon="5.37521667"><ele>376</ele><time>2008-10-11T15:48:35Z</time></trkpt>
<trkpt lat="46.25313333" lon="5.37523333"><ele>373</ele><time>2008-10-11T15:48:41Z</time></trkpt>
<trkpt lat="46.25331667" lon="5.37515000"><ele>372</ele><time>2008-10-11T15:48:45Z</time></trkpt>
<trkpt lat="46.25350000" lon="5.37500000"><ele>370</ele><time>2008-10-11T15:48:49Z</time></trkpt>
<trkpt lat="46.25370000" lon="5.37485000"><ele>367</ele><time>2008-10-11T15:48:53Z</time></trkpt>
<trkpt lat="46.25401667" lon="5.37465000"><ele>366</ele><time>2008-10-11T15:48:59Z</time></trkpt>
<trkpt lat="46.25421667" lon="5.37455000"><ele>365</ele><time>2008-10-11T15:49:03Z</time></trkpt>
<trkpt lat="46.25443333" lon="5.37445000"><ele>364</ele><time>2008-10-11T15:49:07Z</time></trkpt>
<trkpt lat="46.25465000" lon="5.37433333"><ele>363</ele><time>2008-10-11T15:49:11Z</time></trkpt>
<trkpt lat="46.25485000" lon="5.37420000"><ele>361</ele><time>2008-10-11T15:49:15Z</time></trkpt>
<trkpt lat="46.25520000" lon="5.37395000"><ele>358</ele><time>2008-10-11T15:49:21Z</time></trkpt>
<trkpt lat="46.25578333" lon="5.37358333"><ele>352</ele><time>2008-10-11T15:49:31Z</time></trkpt>
<trkpt lat="46.25590000" lon="5.37348333"><ele>350</ele><time>2008-10-11T15:49:33Z</time></trkpt>
<trkpt lat="46.25615000" lon="5.37336667"><ele>349</ele><time>2008-10-11T15:49:37Z</time></trkpt>
<trkpt lat="46.25636667" lon="5.37328333"><ele>348</ele><time>2008-10-11T15:49:41Z</time></trkpt>
<trkpt lat="46.25658333" lon="5.37318333"><ele>348</ele><time>2008-10-11T15:49:49Z</time></trkpt>
<trkpt lat="46.25676667" lon="5.37315000"><ele>348</ele><time>2008-10-11T15:49:55Z</time></trkpt>
<trkpt lat="46.25690000" lon="5.37310000"><ele>348</ele><time>2008-10-11T15:49:59Z</time></trkpt>
<trkpt lat="46.25705000" lon="5.37305000"><ele>349</ele><time>2008-10-11T15:50:03Z</time></trkpt>
<trkpt lat="46.25721667" lon="5.37296667"><ele>348</ele><time>2008-10-11T15:50:07Z</time></trkpt>
<trkpt lat="46.25735000" lon="5.37288333"><ele>348</ele><time>2008-10-11T15:50:11Z</time></trkpt>
<trkpt lat="46.25748333" lon="5.37283333"><ele>348</ele><time>2008-10-11T15:50:15Z</time></trkpt>
<trkpt lat="46.25763333" lon="5.37280000"><ele>349</ele><time>2008-10-11T15:50:21Z</time></trkpt>
<trkpt lat="46.25780000" lon="5.37275000"><ele>350</ele><time>2008-10-11T15:50:27Z</time></trkpt>
<trkpt lat="46.25798333" lon="5.37263333"><ele>350</ele><time>2008-10-11T15:50:33Z</time></trkpt>
<trkpt lat="46.25811667" lon="5.37253333"><ele>349</ele><time>2008-10-11T15:50:37Z</time></trkpt>
<trkpt lat="46.25833333" lon="5.37240000"><ele>347</ele><time>2008-10-11T15:50:43Z</time></trkpt>
<trkpt lat="46.25850000" lon="5.37235000"><ele>347</ele><time>2008-10-11T15:50:47Z</time></trkpt>
<trkpt lat="46.25871667" lon="5.37235000"><ele>347</ele><time>2008-10-11T15:50:53Z</time></trkpt>
<trkpt lat="46.25886667" lon="5.37233333"><ele>346</ele><time>2008-10-11T15:50:57Z</time></trkpt>
<trkpt lat="46.25901667" lon="5.37233333"><ele>346</ele><time>2008-10-11T15:51:01Z</time></trkpt>
<trkpt lat="46.25918333" lon="5.37235000"><ele>345</ele><time>2008-10-11T15:51:05Z</time></trkpt>
<trkpt lat="46.25933333" lon="5.37240000"><ele>346</ele><time>2008-10-11T15:51:09Z</time></trkpt>
<trkpt lat="46.25950000" lon="5.37243333"><ele>346</ele><time>2008-10-11T15:51:13Z</time></trkpt>
<trkpt lat="46.25966667" lon="5.37246667"><ele>346</ele><time>2008-10-11T15:51:17Z</time></trkpt>
<trkpt lat="46.25993333" lon="5.37251667"><ele>347</ele><time>2008-10-11T15:51:25Z</time></trkpt>
<trkpt lat="46.26011667" lon="5.37255000"><ele>347</ele><time>2008-10-11T15:51:31Z</time></trkpt>
<trkpt lat="46.26028333" lon="5.37258333"><ele>347</ele><time>2008-10-11T15:51:37Z</time></trkpt>
<trkpt lat="46.26045000" lon="5.37250000"><ele>345</ele><time>2008-10-11T15:52:35Z</time></trkpt>
<trkpt lat="46.26053333" lon="5.37228333"><ele>341</ele><time>2008-10-11T15:52:39Z</time></trkpt>
<trkpt lat="46.26068333" lon="5.37201667"><ele>336</ele><time>2008-10-11T15:52:43Z</time></trkpt>
<trkpt lat="46.26085000" lon="5.37166667"><ele>335</ele><time>2008-10-11T15:52:47Z</time></trkpt>
<trkpt lat="46.26090000" lon="5.37133333"><ele>336</ele><time>2008-10-11T15:52:51Z</time></trkpt>
<trkpt lat="46.26088333" lon="5.37108333"><ele>337</ele><time>2008-10-11T15:52:55Z</time></trkpt>
<trkpt lat="46.26086667" lon="5.37085000"><ele>338</ele><time>2008-10-11T15:52:59Z</time></trkpt>
<trkpt lat="46.26088333" lon="5.37063333"><ele>339</ele><time>2008-10-11T15:53:03Z</time></trkpt>
<trkpt lat="46.26093333" lon="5.37041667"><ele>339</ele><time>2008-10-11T15:53:07Z</time></trkpt>
<trkpt lat="46.26103333" lon="5.37008333"><ele>341</ele><time>2008-10-11T15:53:13Z</time></trkpt>
<trkpt lat="46.26113333" lon="5.36990000"><ele>342</ele><time>2008-10-11T15:53:17Z</time></trkpt>
<trkpt lat="46.26125000" lon="5.36975000"><ele>342</ele><time>2008-10-11T15:53:21Z</time></trkpt>
<trkpt lat="46.26135000" lon="5.36960000"><ele>341</ele><time>2008-10-11T15:53:25Z</time></trkpt>
<trkpt lat="46.26146667" lon="5.36948333"><ele>340</ele><time>2008-10-11T15:53:29Z</time></trkpt>
<trkpt lat="46.26160000" lon="5.36933333"><ele>337</ele><time>2008-10-11T15:53:33Z</time></trkpt>
<trkpt lat="46.26173333" lon="5.36916667"><ele>334</ele><time>2008-10-11T15:53:37Z</time></trkpt>
<trkpt lat="46.26191667" lon="5.36901667"><ele>333</ele><time>2008-10-11T15:53:41Z</time></trkpt>
<trkpt lat="46.26213333" lon="5.36895000"><ele>332</ele><time>2008-10-11T15:53:45Z</time></trkpt>
<trkpt lat="46.26235000" lon="5.36895000"><ele>332</ele><time>2008-10-11T15:53:49Z</time></trkpt>
<trkpt lat="46.26256667" lon="5.36896667"><ele>331</ele><time>2008-10-11T15:53:53Z</time></trkpt>
<trkpt lat="46.26276667" lon="5.36900000"><ele>332</ele><time>2008-10-11T15:53:57Z</time></trkpt>
<trkpt lat="46.26305000" lon="5.36906667"><ele>332</ele><time>2008-10-11T15:54:03Z</time></trkpt>
<trkpt lat="46.26351667" lon="5.36918333"><ele>332</ele><time>2008-10-11T15:54:13Z</time></trkpt>
<trkpt lat="46.26375000" lon="5.36918333"><ele>331</ele><time>2008-10-11T15:54:17Z</time></trkpt>
<trkpt lat="46.26426667" lon="5.36918333"><ele>328</ele><time>2008-10-11T15:54:25Z</time></trkpt>
<trkpt lat="46.26440000" lon="5.36921667"><ele>328</ele><time>2008-10-11T15:54:27Z</time></trkpt>
<trkpt lat="46.26453333" lon="5.36925000"><ele>327</ele><time>2008-10-11T15:54:29Z</time></trkpt>
<trkpt lat="46.26468333" lon="5.36933333"><ele>326</ele><time>2008-10-11T15:54:31Z</time></trkpt>
<trkpt lat="46.26510000" lon="5.36958333"><ele>326</ele><time>2008-10-11T15:54:37Z</time></trkpt>
<trkpt lat="46.26525000" lon="5.36960000"><ele>326</ele><time>2008-10-11T15:54:39Z</time></trkpt>
<trkpt lat="46.26548333" lon="5.36955000"><ele>323</ele><time>2008-10-11T15:54:43Z</time></trkpt>
<trkpt lat="46.26561667" lon="5.36948333"><ele>321</ele><time>2008-10-11T15:54:47Z</time></trkpt>
<trkpt lat="46.26578333" lon="5.36938333"><ele>317</ele><time>2008-10-11T15:54:51Z</time></trkpt>
<trkpt lat="46.26601667" lon="5.36950000"><ele>316</ele><time>2008-10-11T15:54:55Z</time></trkpt>
<trkpt lat="46.26615000" lon="5.36960000"><ele>316</ele><time>2008-10-11T15:54:57Z</time></trkpt>
<trkpt lat="46.26641667" lon="5.36980000"><ele>318</ele><time>2008-10-11T15:55:01Z</time></trkpt>
<trkpt lat="46.26658333" lon="5.36983333"><ele>318</ele><time>2008-10-11T15:55:03Z</time></trkpt>
<trkpt lat="46.26675000" lon="5.36980000"><ele>315</ele><time>2008-10-11T15:55:05Z</time></trkpt>
<trkpt lat="46.26691667" lon="5.36971667"><ele>313</ele><time>2008-10-11T15:55:07Z</time></trkpt>
<trkpt lat="46.26710000" lon="5.36960000"><ele>313</ele><time>2008-10-11T15:55:09Z</time></trkpt>
<trkpt lat="46.26743333" lon="5.36935000"><ele>309</ele><time>2008-10-11T15:55:13Z</time></trkpt>
<trkpt lat="46.26780000" lon="5.36910000"><ele>305</ele><time>2008-10-11T15:55:17Z</time></trkpt>
<trkpt lat="46.26800000" lon="5.36901667"><ele>304</ele><time>2008-10-11T15:55:19Z</time></trkpt>
<trkpt lat="46.26821667" lon="5.36896667"><ele>304</ele><time>2008-10-11T15:55:21Z</time></trkpt>
<trkpt lat="46.26901667" lon="5.36876667"><ele>296</ele><time>2008-10-11T15:55:29Z</time></trkpt>
<trkpt lat="46.26918333" lon="5.36868333"><ele>295</ele><time>2008-10-11T15:55:33Z</time></trkpt>
<trkpt lat="46.26916667" lon="5.36891667"><ele>295</ele><time>2008-10-11T15:55:41Z</time></trkpt>
<trkpt lat="46.26908333" lon="5.36911667"><ele>295</ele><time>2008-10-11T15:55:45Z</time></trkpt>
<trkpt lat="46.26903333" lon="5.36938333"><ele>296</ele><time>2008-10-11T15:55:49Z</time></trkpt>
<trkpt lat="46.26900000" lon="5.36965000"><ele>297</ele><time>2008-10-11T15:55:53Z</time></trkpt>
<trkpt lat="46.26901667" lon="5.36991667"><ele>298</ele><time>2008-10-11T15:55:57Z</time></trkpt>
<trkpt lat="46.26905000" lon="5.37040000"><ele>301</ele><time>2008-10-11T15:56:07Z</time></trkpt>
<trkpt lat="46.26908333" lon="5.37065000"><ele>301</ele><time>2008-10-11T15:57:20Z</time></trkpt>
<trkpt lat="46.26913333" lon="5.37091667"><ele>301</ele><time>2008-10-11T15:57:26Z</time></trkpt>
<trkpt lat="46.26918333" lon="5.37115000"><ele>301</ele><time>2008-10-11T15:57:30Z</time></trkpt>
<trkpt lat="46.26920000" lon="5.37138333"><ele>303</ele><time>2008-10-11T15:57:34Z</time></trkpt>
<trkpt lat="46.26923333" lon="5.37161667"><ele>303</ele><time>2008-10-11T15:57:38Z</time></trkpt>
<trkpt lat="46.26931667" lon="5.37183333"><ele>302</ele><time>2008-10-11T15:57:42Z</time></trkpt>
<trkpt lat="46.26940000" lon="5.37203333"><ele>300</ele><time>2008-10-11T15:57:46Z</time></trkpt>
<trkpt lat="46.26956667" lon="5.37235000"><ele>300</ele><time>2008-10-11T15:57:52Z</time></trkpt>
<trkpt lat="46.26971667" lon="5.37266667"><ele>302</ele><time>2008-10-11T15:57:58Z</time></trkpt>
<trkpt lat="46.26978333" lon="5.37288333"><ele>302</ele><time>2008-10-11T15:58:02Z</time></trkpt>
<trkpt lat="46.26986667" lon="5.37311667"><ele>302</ele><time>2008-10-11T15:58:06Z</time></trkpt>
<trkpt lat="46.27000000" lon="5.37356667"><ele>304</ele><time>2008-10-11T15:58:14Z</time></trkpt>
<trkpt lat="46.27010000" lon="5.37388333"><ele>306</ele><time>2008-10-11T15:58:20Z</time></trkpt>
<trkpt lat="46.27015000" lon="5.37408333"><ele>309</ele><time>2008-10-11T15:58:24Z</time></trkpt>
<trkpt lat="46.27008333" lon="5.37435000"><ele>311</ele><time>2008-10-11T15:58:30Z</time></trkpt>
<trkpt lat="46.26995000" lon="5.37448333"><ele>310</ele><time>2008-10-11T15:58:34Z</time></trkpt>
<trkpt lat="46.26983333" lon="5.37461667"><ele>310</ele><time>2008-10-11T15:58:38Z</time></trkpt>
<trkpt lat="46.26971667" lon="5.37475000"><ele>310</ele><time>2008-10-11T15:58:42Z</time></trkpt>
<trkpt lat="46.26960000" lon="5.37495000"><ele>311</ele><time>2008-10-11T15:58:46Z</time></trkpt>
<trkpt lat="46.26951667" lon="5.37511667"><ele>312</ele><time>2008-10-11T15:58:50Z</time></trkpt>
<trkpt lat="46.26941667" lon="5.37536667"><ele>313</ele><time>2008-10-11T15:58:56Z</time></trkpt>
<trkpt lat="46.26911667" lon="5.37618333"><ele>319</ele><time>2008-10-11T15:59:14Z</time></trkpt>
<trkpt lat="46.26906667" lon="5.37638333"><ele>319</ele><time>2008-10-11T15:59:18Z</time></trkpt>
<trkpt lat="46.26900000" lon="5.37666667"><ele>318</ele><time>2008-10-11T15:59:24Z</time></trkpt>
<trkpt lat="46.26900000" lon="5.37686667"><ele>320</ele><time>2008-10-11T15:59:28Z</time></trkpt>
<trkpt lat="46.26898333" lon="5.37718333"><ele>320</ele><time>2008-10-11T15:59:34Z</time></trkpt>
<trkpt lat="46.26898333" lon="5.37750000"><ele>320</ele><time>2008-10-11T15:59:40Z</time></trkpt>
<trkpt lat="46.26900000" lon="5.37770000"><ele>321</ele><time>2008-10-11T15:59:44Z</time></trkpt>
<trkpt lat="46.26901667" lon="5.37791667"><ele>321</ele><time>2008-10-11T15:59:48Z</time></trkpt>
<trkpt lat="46.26905000" lon="5.37811667"><ele>322</ele><time>2008-10-11T15:59:52Z</time></trkpt>
<trkpt lat="46.26913333" lon="5.37860000"><ele>324</ele><time>2008-10-11T16:00:02Z</time></trkpt>
<trkpt lat="46.26918333" lon="5.37878333"><ele>324</ele><time>2008-10-11T16:00:06Z</time></trkpt>
<trkpt lat="46.26921667" lon="5.37898333"><ele>324</ele><time>2008-10-11T16:00:10Z</time></trkpt>
<trkpt lat="46.26926667" lon="5.37916667"><ele>324</ele><time>2008-10-11T16:00:14Z</time></trkpt>
<trkpt lat="46.26931667" lon="5.37935000"><ele>324</ele><time>2008-10-11T16:00:18Z</time></trkpt>
<trkpt lat="46.26936667" lon="5.37953333"><ele>324</ele><time>2008-10-11T16:00:22Z</time></trkpt>
<trkpt lat="46.26941667" lon="5.37973333"><ele>325</ele><time>2008-10-11T16:00:26Z</time></trkpt>
<trkpt lat="46.26943333" lon="5.38000000"><ele>325</ele><time>2008-10-11T16:00:32Z</time></trkpt>
<trkpt lat="46.26953333" lon="5.38023333"><ele>325</ele><time>2008-10-11T16:00:38Z</time></trkpt>
<trkpt lat="46.26968333" lon="5.38051667"><ele>326</ele><time>2008-10-11T16:00:46Z</time></trkpt>
<trkpt lat="46.26978333" lon="5.38075000"><ele>327</ele><time>2008-10-11T16:00:52Z</time></trkpt>
<trkpt lat="46.26996667" lon="5.38120000"><ele>327</ele><time>2008-10-11T16:01:04Z</time></trkpt>
<trkpt lat="46.27003333" lon="5.38138333"><ele>327</ele><time>2008-10-11T16:01:10Z</time></trkpt>
<trkpt lat="46.27000000" lon="5.38160000"><ele>327</ele><time>2008-10-11T16:01:16Z</time></trkpt>
<trkpt lat="46.26988333" lon="5.38178333"><ele>329</ele><time>2008-10-11T16:01:22Z</time></trkpt>
<trkpt lat="46.26973333" lon="5.38193333"><ele>330</ele><time>2008-10-11T16:01:28Z</time></trkpt>
<trkpt lat="46.26960000" lon="5.38208333"><ele>331</ele><time>2008-10-11T16:01:34Z</time></trkpt>
<trkpt lat="46.26946667" lon="5.38225000"><ele>332</ele><time>2008-10-11T16:01:42Z</time></trkpt>
<trkpt lat="46.26935000" lon="5.38235000"><ele>333</ele><time>2008-10-11T16:01:50Z</time></trkpt>
<trkpt lat="46.26921667" lon="5.38238333"><ele>333</ele><time>2008-10-11T16:02:00Z</time></trkpt>
<trkpt lat="46.26908333" lon="5.38246667"><ele>334</ele><time>2008-10-11T16:02:18Z</time></trkpt>
<trkpt lat="46.26893333" lon="5.38250000"><ele>335</ele><time>2008-10-11T16:02:28Z</time></trkpt>
<trkpt lat="46.26880000" lon="5.38255000"><ele>337</ele><time>2008-10-11T16:02:38Z</time></trkpt>
<trkpt lat="46.26866667" lon="5.38263333"><ele>339</ele><time>2008-10-11T16:02:58Z</time></trkpt>
<trkpt lat="46.26855000" lon="5.38273333"><ele>342</ele><time>2008-10-11T16:03:30Z</time></trkpt>
<trkpt lat="46.26843333" lon="5.38283333"><ele>344</ele><time>2008-10-11T16:03:42Z</time></trkpt>
<trkpt lat="46.26828333" lon="5.38295000"><ele>346</ele><time>2008-10-11T16:04:00Z</time></trkpt>
<trkpt lat="46.26813333" lon="5.38303333"><ele>348</ele><time>2008-10-11T16:04:20Z</time></trkpt>
<trkpt lat="46.26798333" lon="5.38320000"><ele>351</ele><time>2008-10-11T16:04:38Z</time></trkpt>
<trkpt lat="46.26785000" lon="5.38335000"><ele>356</ele><time>2008-10-11T16:04:55Z</time></trkpt>
<trkpt lat="46.26770000" lon="5.38350000"><ele>356</ele><time>2008-10-11T16:05:15Z</time></trkpt>
<trkpt lat="46.26758333" lon="5.38365000"><ele>356</ele><time>2008-10-11T16:05:39Z</time></trkpt>
<trkpt lat="46.26746667" lon="5.38375000"><ele>357</ele><time>2008-10-11T16:05:47Z</time></trkpt>
<trkpt lat="46.26733333" lon="5.38385000"><ele>359</ele><time>2008-10-11T16:05:55Z</time></trkpt>
<trkpt lat="46.26720000" lon="5.38396667"><ele>361</ele><time>2008-10-11T16:06:03Z</time></trkpt>
<trkpt lat="46.26708333" lon="5.38408333"><ele>361</ele><time>2008-10-11T16:06:09Z</time></trkpt>
<trkpt lat="46.26691667" lon="5.38423333"><ele>361</ele><time>2008-10-11T16:06:17Z</time></trkpt>
<trkpt lat="46.26678333" lon="5.38436667"><ele>361</ele><time>2008-10-11T16:06:23Z</time></trkpt>
<trkpt lat="46.26661667" lon="5.38453333"><ele>362</ele><time>2008-10-11T16:06:29Z</time></trkpt>
<trkpt lat="46.26635000" lon="5.38481667"><ele>364</ele><time>2008-10-11T16:06:39Z</time></trkpt>
<trkpt lat="46.26625000" lon="5.38495000"><ele>363</ele><time>2008-10-11T16:06:43Z</time></trkpt>
<trkpt lat="46.26611667" lon="5.38511667"><ele>363</ele><time>2008-10-11T16:06:47Z</time></trkpt>
<trkpt lat="46.26595000" lon="5.38531667"><ele>363</ele><time>2008-10-11T16:06:51Z</time></trkpt>
<trkpt lat="46.26591667" lon="5.38553333"><ele>363</ele><time>2008-10-11T16:06:55Z</time></trkpt>
<trkpt lat="46.26585000" lon="5.38575000"><ele>362</ele><time>2008-10-11T16:07:01Z</time></trkpt>
<trkpt lat="46.26580000" lon="5.38593333"><ele>364</ele><time>2008-10-11T16:07:07Z</time></trkpt>
<trkpt lat="46.26573333" lon="5.38613333"><ele>368</ele><time>2008-10-11T16:07:15Z</time></trkpt>
<trkpt lat="46.26568333" lon="5.38636667"><ele>371</ele><time>2008-10-11T16:07:25Z</time></trkpt>
<trkpt lat="46.26565000" lon="5.38658333"><ele>374</ele><time>2008-10-11T16:07:35Z</time></trkpt>
<trkpt lat="46.26581667" lon="5.38658333"><ele>376</ele><time>2008-10-11T16:07:53Z</time></trkpt>
<trkpt lat="46.26591667" lon="5.38645000"><ele>375</ele><time>2008-10-11T16:08:05Z</time></trkpt>
<trkpt lat="46.26603333" lon="5.38633333"><ele>374</ele><time>2008-10-11T16:08:15Z</time></trkpt>
<trkpt lat="46.26616667" lon="5.38621667"><ele>373</ele><time>2008-10-11T16:08:25Z</time></trkpt>
<trkpt lat="46.26631667" lon="5.38615000"><ele>374</ele><time>2008-10-11T16:08:33Z</time></trkpt>
<trkpt lat="46.26645000" lon="5.38610000"><ele>375</ele><time>2008-10-11T16:08:43Z</time></trkpt>
<trkpt lat="46.26658333" lon="5.38603333"><ele>375</ele><time>2008-10-11T16:08:51Z</time></trkpt>
<trkpt lat="46.26671667" lon="5.38596667"><ele>376</ele><time>2008-10-11T16:09:01Z</time></trkpt>
<trkpt lat="46.26686667" lon="5.38588333"><ele>376</ele><time>2008-10-11T16:09:13Z</time></trkpt>
<trkpt lat="46.26701667" lon="5.38583333"><ele>377</ele><time>2008-10-11T16:09:25Z</time></trkpt>
<trkpt lat="46.26703333" lon="5.38603333"><ele>383</ele><time>2008-10-11T16:09:49Z</time></trkpt>
<trkpt lat="46.26693333" lon="5.38616667"><ele>385</ele><time>2008-10-11T16:10:01Z</time></trkpt>
<trkpt lat="46.26681667" lon="5.38638333"><ele>389</ele><time>2008-10-11T16:10:19Z</time></trkpt>
<trkpt lat="46.26695000" lon="5.38641667"><ele>392</ele><time>2008-10-11T16:10:43Z</time></trkpt>
<trkpt lat="46.26715000" lon="5.38633333"><ele>394</ele><time>2008-10-11T16:11:01Z</time></trkpt>
<trkpt lat="46.26730000" lon="5.38626667"><ele>394</ele><time>2008-10-11T16:11:13Z</time></trkpt>
<trkpt lat="46.26743333" lon="5.38620000"><ele>395</ele><time>2008-10-11T16:11:25Z</time></trkpt>
<trkpt lat="46.26758333" lon="5.38611667"><ele>395</ele><time>2008-10-11T16:11:35Z</time></trkpt>
<trkpt lat="46.26773333" lon="5.38608333"><ele>397</ele><time>2008-10-11T16:11:45Z</time></trkpt>
<trkpt lat="46.26788333" lon="5.38608333"><ele>400</ele><time>2008-10-11T16:11:53Z</time></trkpt>
<trkpt lat="46.26803333" lon="5.38610000"><ele>403</ele><time>2008-10-11T16:12:05Z</time></trkpt>
<trkpt lat="46.26818333" lon="5.38611667"><ele>406</ele><time>2008-10-11T16:12:17Z</time></trkpt>
<trkpt lat="46.26836667" lon="5.38613333"><ele>409</ele><time>2008-10-11T16:12:37Z</time></trkpt>
<trkpt lat="46.26851667" lon="5.38615000"><ele>411</ele><time>2008-10-11T16:13:07Z</time></trkpt>
<trkpt lat="46.26866667" lon="5.38615000"><ele>413</ele><time>2008-10-11T16:13:24Z</time></trkpt>
<trkpt lat="46.26881667" lon="5.38616667"><ele>414</ele><time>2008-10-11T16:13:36Z</time></trkpt>
<trkpt lat="46.26898333" lon="5.38618333"><ele>417</ele><time>2008-10-11T16:13:58Z</time></trkpt>
<trkpt lat="46.26913333" lon="5.38620000"><ele>419</ele><time>2008-10-11T16:14:16Z</time></trkpt>
<trkpt lat="46.26935000" lon="5.38621667"><ele>421</ele><time>2008-10-11T16:14:36Z</time></trkpt>
<trkpt lat="46.26955000" lon="5.38620000"><ele>423</ele><time>2008-10-11T16:14:54Z</time></trkpt>
<trkpt lat="46.26970000" lon="5.38621667"><ele>425</ele><time>2008-10-11T16:15:06Z</time></trkpt>
<trkpt lat="46.26985000" lon="5.38623333"><ele>427</ele><time>2008-10-11T16:15:16Z</time></trkpt>
<trkpt lat="46.27005000" lon="5.38625000"><ele>430</ele><time>2008-10-11T16:15:28Z</time></trkpt>
<trkpt lat="46.27020000" lon="5.38625000"><ele>432</ele><time>2008-10-11T16:15:38Z</time></trkpt>
<trkpt lat="46.27035000" lon="5.38625000"><ele>434</ele><time>2008-10-11T16:15:50Z</time></trkpt>
<trkpt lat="46.27060000" lon="5.38626667"><ele>436</ele><time>2008-10-11T16:16:10Z</time></trkpt>
<trkpt lat="46.27051667" lon="5.38648333"><ele>440</ele><time>2008-10-11T16:16:28Z</time></trkpt>
<trkpt lat="46.27036667" lon="5.38665000"><ele>442</ele><time>2008-10-11T16:16:46Z</time></trkpt>
<trkpt lat="46.27018333" lon="5.38685000"><ele>444</ele><time>2008-10-11T16:17:04Z</time></trkpt>
<trkpt lat="46.27006667" lon="5.38698333"><ele>446</ele><time>2008-10-11T16:17:16Z</time></trkpt>
<trkpt lat="46.26995000" lon="5.38708333"><ele>447</ele><time>2008-10-11T16:17:26Z</time></trkpt>
<trkpt lat="46.26983333" lon="5.38721667"><ele>449</ele><time>2008-10-11T16:17:38Z</time></trkpt>
<trkpt lat="46.26970000" lon="5.38735000"><ele>450</ele><time>2008-10-11T16:17:50Z</time></trkpt>
<trkpt lat="46.26978333" lon="5.38751667"><ele>454</ele><time>2008-10-11T16:18:10Z</time></trkpt>
<trkpt lat="46.26996667" lon="5.38750000"><ele>456</ele><time>2008-10-11T16:18:28Z</time></trkpt>
<trkpt lat="46.27011667" lon="5.38751667"><ele>458</ele><time>2008-10-11T16:18:40Z</time></trkpt>
<trkpt lat="46.27026667" lon="5.38751667"><ele>459</ele><time>2008-10-11T16:18:50Z</time></trkpt>
<trkpt lat="46.27060000" lon="5.38753333"><ele>462</ele><time>2008-10-11T16:19:08Z</time></trkpt>
<trkpt lat="46.27075000" lon="5.38756667"><ele>463</ele><time>2008-10-11T16:19:16Z</time></trkpt>
<trkpt lat="46.27093333" lon="5.38761667"><ele>465</ele><time>2008-10-11T16:19:26Z</time></trkpt>
<trkpt lat="46.27108333" lon="5.38763333"><ele>465</ele><time>2008-10-11T16:19:36Z</time></trkpt>
<trkpt lat="46.27123333" lon="5.38766667"><ele>466</ele><time>2008-10-11T16:19:46Z</time></trkpt>
<trkpt lat="46.27136667" lon="5.38770000"><ele>467</ele><time>2008-10-11T16:19:58Z</time></trkpt>
<trkpt lat="46.27150000" lon="5.38773333"><ele>468</ele><time>2008-10-11T16:20:10Z</time></trkpt>
<trkpt lat="46.27166667" lon="5.38776667"><ele>469</ele><time>2008-10-11T16:20:22Z</time></trkpt>
<trkpt lat="46.27180000" lon="5.38781667"><ele>470</ele><time>2008-10-11T16:20:34Z</time></trkpt>
<trkpt lat="46.27195000" lon="5.38788333"><ele>471</ele><time>2008-10-11T16:20:46Z</time></trkpt>
<trkpt lat="46.27208333" lon="5.38796667"><ele>473</ele><time>2008-10-11T16:20:56Z</time></trkpt>
<trkpt lat="46.27221667" lon="5.38800000"><ele>474</ele><time>2008-10-11T16:21:08Z</time></trkpt>
<trkpt lat="46.27240000" lon="5.38806667"><ele>476</ele><time>2008-10-11T16:21:30Z</time></trkpt>
<trkpt lat="46.27253333" lon="5.38820000"><ele>479</ele><time>2008-10-11T16:21:43Z</time></trkpt>
<trkpt lat="46.27268333" lon="5.38825000"><ele>480</ele><time>2008-10-11T16:21:55Z</time></trkpt>
<trkpt lat="46.27281667" lon="5.38835000"><ele>482</ele><time>2008-10-11T16:22:07Z</time></trkpt>
<trkpt lat="46.27295000" lon="5.38845000"><ele>484</ele><time>2008-10-11T16:22:19Z</time></trkpt>
<trkpt lat="46.27308333" lon="5.38853333"><ele>486</ele><time>2008-10-11T16:22:31Z</time></trkpt>
<trkpt lat="46.27321667" lon="5.38860000"><ele>487</ele><time>2008-10-11T16:22:41Z</time></trkpt>
<trkpt lat="46.27345000" lon="5.38871667"><ele>489</ele><time>2008-10-11T16:23:01Z</time></trkpt>
<trkpt lat="46.27360000" lon="5.38873333"><ele>490</ele><time>2008-10-11T16:23:13Z</time></trkpt>
<trkpt lat="46.27375000" lon="5.38876667"><ele>492</ele><time>2008-10-11T16:23:25Z</time></trkpt>
<trkpt lat="46.27391667" lon="5.38878333"><ele>495</ele><time>2008-10-11T16:23:37Z</time></trkpt>
<trkpt lat="46.27408333" lon="5.38881667"><ele>497</ele><time>2008-10-11T16:23:49Z</time></trkpt>
<trkpt lat="46.27421667" lon="5.38886667"><ele>500</ele><time>2008-10-11T16:24:01Z</time></trkpt>
<trkpt lat="46.27436667" lon="5.38893333"><ele>504</ele><time>2008-10-11T16:24:19Z</time></trkpt>
<trkpt lat="46.27455000" lon="5.38893333"><ele>505</ele><time>2008-10-11T16:24:39Z</time></trkpt>
<trkpt lat="46.27471667" lon="5.38896667"><ele>507</ele><time>2008-10-11T16:25:03Z</time></trkpt>
<trkpt lat="46.27488333" lon="5.38906667"><ele>510</ele><time>2008-10-11T16:25:21Z</time></trkpt>
<trkpt lat="46.27501667" lon="5.38911667"><ele>512</ele><time>2008-10-11T16:25:33Z</time></trkpt>
<trkpt lat="46.27511667" lon="5.38925000"><ele>516</ele><time>2008-10-11T16:25:55Z</time></trkpt>
<trkpt lat="46.27528333" lon="5.38928333"><ele>518</ele><time>2008-10-11T16:26:13Z</time></trkpt>
<trkpt lat="46.27546667" lon="5.38933333"><ele>520</ele><time>2008-10-11T16:26:31Z</time></trkpt>
<trkpt lat="46.27565000" lon="5.38940000"><ele>523</ele><time>2008-10-11T16:26:49Z</time></trkpt>
<trkpt lat="46.27580000" lon="5.38943333"><ele>525</ele><time>2008-10-11T16:27:19Z</time></trkpt>
<trkpt lat="46.27591667" lon="5.38953333"><ele>528</ele><time>2008-10-11T16:27:31Z</time></trkpt>
<trkpt lat="46.27611667" lon="5.38965000"><ele>532</ele><time>2008-10-11T16:27:49Z</time></trkpt>
<trkpt lat="46.27630000" lon="5.38975000"><ele>535</ele><time>2008-10-11T16:28:07Z</time></trkpt>
<trkpt lat="46.27643333" lon="5.38978333"><ele>536</ele><time>2008-10-11T16:28:19Z</time></trkpt>
<trkpt lat="46.27655000" lon="5.38988333"><ele>539</ele><time>2008-10-11T16:28:38Z</time></trkpt>
<trkpt lat="46.27671667" lon="5.38995000"><ele>540</ele><time>2008-10-11T16:28:56Z</time></trkpt>
<trkpt lat="46.27688333" lon="5.39000000"><ele>541</ele><time>2008-10-11T16:29:14Z</time></trkpt>
<trkpt lat="46.27706667" lon="5.39013333"><ele>543</ele><time>2008-10-11T16:29:32Z</time></trkpt>
<trkpt lat="46.27721667" lon="5.39018333"><ele>545</ele><time>2008-10-11T16:29:50Z</time></trkpt>
<trkpt lat="46.27740000" lon="5.39026667"><ele>547</ele><time>2008-10-11T16:30:08Z</time></trkpt>
<trkpt lat="46.27758333" lon="5.39036667"><ele>549</ele><time>2008-10-11T16:30:26Z</time></trkpt>
<trkpt lat="46.27775000" lon="5.39046667"><ele>551</ele><time>2008-10-11T16:30:44Z</time></trkpt>
<trkpt lat="46.27796667" lon="5.39056667"><ele>553</ele><time>2008-10-11T16:31:02Z</time></trkpt>
<trkpt lat="46.27815000" lon="5.39066667"><ele>555</ele><time>2008-10-11T16:31:20Z</time></trkpt>
<trkpt lat="46.27830000" lon="5.39073333"><ele>557</ele><time>2008-10-11T16:31:42Z</time></trkpt>
<trkpt lat="46.27843333" lon="5.39078333"><ele>558</ele><time>2008-10-11T16:31:54Z</time></trkpt>
<trkpt lat="46.27863333" lon="5.39091667"><ele>561</ele><time>2008-10-11T16:32:14Z</time></trkpt>
<trkpt lat="46.27880000" lon="5.39095000"><ele>562</ele><time>2008-10-11T16:32:32Z</time></trkpt>
<trkpt lat="46.27898333" lon="5.39101667"><ele>564</ele><time>2008-10-11T16:32:52Z</time></trkpt>
<trkpt lat="46.27911667" lon="5.39108333"><ele>566</ele><time>2008-10-11T16:33:18Z</time></trkpt>
<trkpt lat="46.27923333" lon="5.39120000"><ele>569</ele><time>2008-10-11T16:33:36Z</time></trkpt>
<trkpt lat="46.27933333" lon="5.39133333"><ele>573</ele><time>2008-10-11T16:33:58Z</time></trkpt>
<trkpt lat="46.27940000" lon="5.39151667"><ele>577</ele><time>2008-10-11T16:34:32Z</time></trkpt>
<trkpt lat="46.27931667" lon="5.39168333"><ele>581</ele><time>2008-10-11T16:38:05Z</time></trkpt>
<trkpt lat="46.27918333" lon="5.39175000"><ele>583</ele><time>2008-10-11T16:38:15Z</time></trkpt>
<trkpt lat="46.27896667" lon="5.39183333"><ele>584</ele><time>2008-10-11T16:38:35Z</time></trkpt>
<trkpt lat="46.27883333" lon="5.39190000"><ele>586</ele><time>2008-10-11T16:38:47Z</time></trkpt>
<trkpt lat="46.27870000" lon="5.39195000"><ele>587</ele><time>2008-10-11T16:38:59Z</time></trkpt>
<trkpt lat="46.27856667" lon="5.39198333"><ele>588</ele><time>2008-10-11T16:39:09Z</time></trkpt>
<trkpt lat="46.27836667" lon="5.39200000"><ele>589</ele><time>2008-10-11T16:39:19Z</time></trkpt>
<trkpt lat="46.27816667" lon="5.39206667"><ele>591</ele><time>2008-10-11T16:39:29Z</time></trkpt>
<trkpt lat="46.27786667" lon="5.39215000"><ele>594</ele><time>2008-10-11T16:39:47Z</time></trkpt>
<trkpt lat="46.27773333" lon="5.39220000"><ele>595</ele><time>2008-10-11T16:39:55Z</time></trkpt>
<trkpt lat="46.27760000" lon="5.39230000"><ele>597</ele><time>2008-10-11T16:40:03Z</time></trkpt>
<trkpt lat="46.27750000" lon="5.39250000"><ele>597</ele><time>2008-10-11T16:40:15Z</time></trkpt>
<trkpt lat="46.27726667" lon="5.39290000"><ele>593</ele><time>2008-10-11T16:40:23Z</time></trkpt>
<trkpt lat="46.27711667" lon="5.39296667"><ele>592</ele><time>2008-10-11T16:40:27Z</time></trkpt>
<trkpt lat="46.27690000" lon="5.39298333"><ele>591</ele><time>2008-10-11T16:40:31Z</time></trkpt>
<trkpt lat="46.27670000" lon="5.39301667"><ele>590</ele><time>2008-10-11T16:40:35Z</time></trkpt>
<trkpt lat="46.27650000" lon="5.39305000"><ele>588</ele><time>2008-10-11T16:40:39Z</time></trkpt>
<trkpt lat="46.27635000" lon="5.39310000"><ele>586</ele><time>2008-10-11T16:40:43Z</time></trkpt>
<trkpt lat="46.27621667" lon="5.39320000"><ele>582</ele><time>2008-10-11T16:40:47Z</time></trkpt>
<trkpt lat="46.27611667" lon="5.39336667"><ele>578</ele><time>2008-10-11T16:40:51Z</time></trkpt>
<trkpt lat="46.27580000" lon="5.39390000"><ele>566</ele><time>2008-10-11T16:41:03Z</time></trkpt>
<trkpt lat="46.27575000" lon="5.39408333"><ele>563</ele><time>2008-10-11T16:41:07Z</time></trkpt>
<trkpt lat="46.27561667" lon="5.39401667"><ele>563</ele><time>2008-10-11T16:41:15Z</time></trkpt>
<trkpt lat="46.27545000" lon="5.39385000"><ele>563</ele><time>2008-10-11T16:41:21Z</time></trkpt>
<trkpt lat="46.27530000" lon="5.39371667"><ele>562</ele><time>2008-10-11T16:41:25Z</time></trkpt>
<trkpt lat="46.27511667" lon="5.39360000"><ele>561</ele><time>2008-10-11T16:41:29Z</time></trkpt>
<trkpt lat="46.27495000" lon="5.39348333"><ele>558</ele><time>2008-10-11T16:41:33Z</time></trkpt>
<trkpt lat="46.27456667" lon="5.39318333"><ele>556</ele><time>2008-10-11T16:41:41Z</time></trkpt>
<trkpt lat="46.27433333" lon="5.39303333"><ele>555</ele><time>2008-10-11T16:41:45Z</time></trkpt>
<trkpt lat="46.27420000" lon="5.39295000"><ele>554</ele><time>2008-10-11T16:41:47Z</time></trkpt>
<trkpt lat="46.27393333" lon="5.39280000"><ele>551</ele><time>2008-10-11T16:41:51Z</time></trkpt>
<trkpt lat="46.27358333" lon="5.39260000"><ele>548</ele><time>2008-10-11T16:41:57Z</time></trkpt>
<trkpt lat="46.27338333" lon="5.39241667"><ele>548</ele><time>2008-10-11T16:42:01Z</time></trkpt>
<trkpt lat="46.27346667" lon="5.39270000"><ele>541</ele><time>2008-10-11T16:42:11Z</time></trkpt>
<trkpt lat="46.27363333" lon="5.39291667"><ele>540</ele><time>2008-10-11T16:42:15Z</time></trkpt>
<trkpt lat="46.27383333" lon="5.39320000"><ele>538</ele><time>2008-10-11T16:42:19Z</time></trkpt>
<trkpt lat="46.27406667" lon="5.39353333"><ele>537</ele><time>2008-10-11T16:42:25Z</time></trkpt>
<trkpt lat="46.27393333" lon="5.39371667"><ele>536</ele><time>2008-10-11T16:42:29Z</time></trkpt>
<trkpt lat="46.27378333" lon="5.39375000"><ele>533</ele><time>2008-10-11T16:42:31Z</time></trkpt>
<trkpt lat="46.27348333" lon="5.39375000"><ele>530</ele><time>2008-10-11T16:42:35Z</time></trkpt>
<trkpt lat="46.27315000" lon="5.39371667"><ele>527</ele><time>2008-10-11T16:42:39Z</time></trkpt>
<trkpt lat="46.27281667" lon="5.39366667"><ele>524</ele><time>2008-10-11T16:42:43Z</time></trkpt>
<trkpt lat="46.27265000" lon="5.39363333"><ele>522</ele><time>2008-10-11T16:42:45Z</time></trkpt>
<trkpt lat="46.27213333" lon="5.39348333"><ele>517</ele><time>2008-10-11T16:42:51Z</time></trkpt>
<trkpt lat="46.27195000" lon="5.39341667"><ele>515</ele><time>2008-10-11T16:42:53Z</time></trkpt>
<trkpt lat="46.27176667" lon="5.39331667"><ele>512</ele><time>2008-10-11T16:42:55Z</time></trkpt>
<trkpt lat="46.27158333" lon="5.39323333"><ele>511</ele><time>2008-10-11T16:42:57Z</time></trkpt>
<trkpt lat="46.26981667" lon="5.39250000"><ele>499</ele><time>2008-10-11T16:43:15Z</time></trkpt>
<trkpt lat="46.26960000" lon="5.39241667"><ele>498</ele><time>2008-10-11T16:43:17Z</time></trkpt>
<trkpt lat="46.26940000" lon="5.39235000"><ele>497</ele><time>2008-10-11T16:43:19Z</time></trkpt>
<trkpt lat="46.26840000" lon="5.39206667"><ele>495</ele><time>2008-10-11T16:43:29Z</time></trkpt>
<trkpt lat="46.26820000" lon="5.39196667"><ele>492</ele><time>2008-10-11T16:43:31Z</time></trkpt>
<trkpt lat="46.26738333" lon="5.39160000"><ele>482</ele><time>2008-10-11T16:43:39Z</time></trkpt>
<trkpt lat="46.26648333" lon="5.39115000"><ele>476</ele><time>2008-10-11T16:43:49Z</time></trkpt>
<trkpt lat="46.26631667" lon="5.39103333"><ele>475</ele><time>2008-10-11T16:43:51Z</time></trkpt>
<trkpt lat="46.26510000" lon="5.39003333"><ele>470</ele><time>2008-10-11T16:44:09Z</time></trkpt>
<trkpt lat="46.26461667" lon="5.38960000"><ele>472</ele><time>2008-10-11T16:44:19Z</time></trkpt>
<trkpt lat="46.26446667" lon="5.38946667"><ele>472</ele><time>2008-10-11T16:44:23Z</time></trkpt>
<trkpt lat="46.26433333" lon="5.38938333"><ele>474</ele><time>2008-10-11T16:44:27Z</time></trkpt>
<trkpt lat="46.26408333" lon="5.38921667"><ele>475</ele><time>2008-10-11T16:44:35Z</time></trkpt>
<trkpt lat="46.26381667" lon="5.38898333"><ele>474</ele><time>2008-10-11T16:44:45Z</time></trkpt>
<trkpt lat="46.26370000" lon="5.38881667"><ele>472</ele><time>2008-10-11T16:46:12Z</time></trkpt>
<trkpt lat="46.26355000" lon="5.38868333"><ele>471</ele><time>2008-10-11T16:46:18Z</time></trkpt>
<trkpt lat="46.26335000" lon="5.38850000"><ele>471</ele><time>2008-10-11T16:46:24Z</time></trkpt>
<trkpt lat="46.26323333" lon="5.38838333"><ele>470</ele><time>2008-10-11T16:46:28Z</time></trkpt>
<trkpt lat="46.26238333" lon="5.38751667"><ele>468</ele><time>2008-10-11T16:46:50Z</time></trkpt>
<trkpt lat="46.26223333" lon="5.38733333"><ele>468</ele><time>2008-10-11T16:46:54Z</time></trkpt>
<trkpt lat="46.26211667" lon="5.38715000"><ele>468</ele><time>2008-10-11T16:46:58Z</time></trkpt>
<trkpt lat="46.26178333" lon="5.38666667"><ele>468</ele><time>2008-10-11T16:47:08Z</time></trkpt>
<trkpt lat="46.26155000" lon="5.38633333"><ele>465</ele><time>2008-10-11T16:47:14Z</time></trkpt>
<trkpt lat="46.26125000" lon="5.38600000"><ele>462</ele><time>2008-10-11T16:47:20Z</time></trkpt>
<trkpt lat="46.26115000" lon="5.38586667"><ele>460</ele><time>2008-10-11T16:47:22Z</time></trkpt>
<trkpt lat="46.26086667" lon="5.38546667"><ele>455</ele><time>2008-10-11T16:47:28Z</time></trkpt>
<trkpt lat="46.26070000" lon="5.38513333"><ele>452</ele><time>2008-10-11T16:47:32Z</time></trkpt>
<trkpt lat="46.26058333" lon="5.38478333"><ele>449</ele><time>2008-10-11T16:47:36Z</time></trkpt>
<trkpt lat="46.26030000" lon="5.38386667"><ele>444</ele><time>2008-10-11T16:47:48Z</time></trkpt>
<trkpt lat="46.26020000" lon="5.38368333"><ele>443</ele><time>2008-10-11T16:47:50Z</time></trkpt>
<trkpt lat="46.26003333" lon="5.38360000"><ele>442</ele><time>2008-10-11T16:47:54Z</time></trkpt>
<trkpt lat="46.25986667" lon="5.38356667"><ele>443</ele><time>2008-10-11T16:47:58Z</time></trkpt>
<trkpt lat="46.25971667" lon="5.38353333"><ele>443</ele><time>2008-10-11T16:48:02Z</time></trkpt>
<trkpt lat="46.25953333" lon="5.38361667"><ele>442</ele><time>2008-10-11T16:48:08Z</time></trkpt>
<trkpt lat="46.25940000" lon="5.38376667"><ele>442</ele><time>2008-10-11T16:48:12Z</time></trkpt>
<trkpt lat="46.25921667" lon="5.38390000"><ele>442</ele><time>2008-10-11T16:48:16Z</time></trkpt>
<trkpt lat="46.25871667" lon="5.38425000"><ele>438</ele><time>2008-10-11T16:48:24Z</time></trkpt>
<trkpt lat="46.25855000" lon="5.38428333"><ele>437</ele><time>2008-10-11T16:48:26Z</time></trkpt>
<trkpt lat="46.25796667" lon="5.38441667"><ele>433</ele><time>2008-10-11T16:48:34Z</time></trkpt>
<trkpt lat="46.25781667" lon="5.38446667"><ele>432</ele><time>2008-10-11T16:48:36Z</time></trkpt>
<trkpt lat="46.25768333" lon="5.38453333"><ele>432</ele><time>2008-10-11T16:48:38Z</time></trkpt>
<trkpt lat="46.25711667" lon="5.38475000"><ele>430</ele><time>2008-10-11T16:48:46Z</time></trkpt>
<trkpt lat="46.25696667" lon="5.38478333"><ele>428</ele><time>2008-10-11T16:48:48Z</time></trkpt>
<trkpt lat="46.25683333" lon="5.38483333"><ele>427</ele><time>2008-10-11T16:48:50Z</time></trkpt>
<trkpt lat="46.25668333" lon="5.38493333"><ele>424</ele><time>2008-10-11T16:48:52Z</time></trkpt>
<trkpt lat="46.25655000" lon="5.38505000"><ele>422</ele><time>2008-10-11T16:48:54Z</time></trkpt>
<trkpt lat="46.25641667" lon="5.38520000"><ele>419</ele><time>2008-10-11T16:48:56Z</time></trkpt>
<trkpt lat="46.25613333" lon="5.38548333"><ele>416</ele><time>2008-10-11T16:49:00Z</time></trkpt>
<trkpt lat="46.25596667" lon="5.38561667"><ele>415</ele><time>2008-10-11T16:49:02Z</time></trkpt>
<trkpt lat="46.25581667" lon="5.38576667"><ele>414</ele><time>2008-10-11T16:49:04Z</time></trkpt>
<trkpt lat="46.25555000" lon="5.38601667"><ele>413</ele><time>2008-10-11T16:49:08Z</time></trkpt>
<trkpt lat="46.25540000" lon="5.38606667"><ele>413</ele><time>2008-10-11T16:49:10Z</time></trkpt>
<trkpt lat="46.25523333" lon="5.38606667"><ele>412</ele><time>2008-10-11T16:49:12Z</time></trkpt>
<trkpt lat="46.25508333" lon="5.38608333"><ele>412</ele><time>2008-10-11T16:49:14Z</time></trkpt>
<trkpt lat="46.25493333" lon="5.38606667"><ele>411</ele><time>2008-10-11T16:49:16Z</time></trkpt>
<trkpt lat="46.25480000" lon="5.38601667"><ele>411</ele><time>2008-10-11T16:49:18Z</time></trkpt>
<trkpt lat="46.25438333" lon="5.38588333"><ele>409</ele><time>2008-10-11T16:49:24Z</time></trkpt>
<trkpt lat="46.25411667" lon="5.38596667"><ele>409</ele><time>2008-10-11T16:49:28Z</time></trkpt>
<trkpt lat="46.25400000" lon="5.38606667"><ele>409</ele><time>2008-10-11T16:49:30Z</time></trkpt>
<trkpt lat="46.25373333" lon="5.38621667"><ele>409</ele><time>2008-10-11T16:49:34Z</time></trkpt>
<trkpt lat="46.25345000" lon="5.38620000"><ele>407</ele><time>2008-10-11T16:49:38Z</time></trkpt>
<trkpt lat="46.25313333" lon="5.38616667"><ele>404</ele><time>2008-10-11T16:49:42Z</time></trkpt>
<trkpt lat="46.25298333" lon="5.38606667"><ele>403</ele><time>2008-10-11T16:49:44Z</time></trkpt>
<trkpt lat="46.25286667" lon="5.38591667"><ele>401</ele><time>2008-10-11T16:49:46Z</time></trkpt>
<trkpt lat="46.25273333" lon="5.38580000"><ele>400</ele><time>2008-10-11T16:49:48Z</time></trkpt>
<trkpt lat="46.25265000" lon="5.38563333"><ele>398</ele><time>2008-10-11T16:49:50Z</time></trkpt>
<trkpt lat="46.25260000" lon="5.38541667"><ele>397</ele><time>2008-10-11T16:49:52Z</time></trkpt>
<trkpt lat="46.25248333" lon="5.38508333"><ele>395</ele><time>2008-10-11T16:49:56Z</time></trkpt>
<trkpt lat="46.25236667" lon="5.38498333"><ele>394</ele><time>2008-10-11T16:49:58Z</time></trkpt>
<trkpt lat="46.25223333" lon="5.38493333"><ele>393</ele><time>2008-10-11T16:50:00Z</time></trkpt>
<trkpt lat="46.25208333" lon="5.38493333"><ele>392</ele><time>2008-10-11T16:50:02Z</time></trkpt>
<trkpt lat="46.25140000" lon="5.38493333"><ele>387</ele><time>2008-10-11T16:50:10Z</time></trkpt>
<trkpt lat="46.25123333" lon="5.38490000"><ele>386</ele><time>2008-10-11T16:50:12Z</time></trkpt>
<trkpt lat="46.25105000" lon="5.38486667"><ele>384</ele><time>2008-10-11T16:50:14Z</time></trkpt>
<trkpt lat="46.25086667" lon="5.38486667"><ele>383</ele><time>2008-10-11T16:50:16Z</time></trkpt>
<trkpt lat="46.25033333" lon="5.38485000"><ele>378</ele><time>2008-10-11T16:50:22Z</time></trkpt>
<trkpt lat="46.25015000" lon="5.38480000"><ele>377</ele><time>2008-10-11T16:50:24Z</time></trkpt>
<trkpt lat="46.24996667" lon="5.38470000"><ele>377</ele><time>2008-10-11T16:50:26Z</time></trkpt>
<trkpt lat="46.24910000" lon="5.38430000"><ele>370</ele><time>2008-10-11T16:50:38Z</time></trkpt>
<trkpt lat="46.24891667" lon="5.38453333"><ele>369</ele><time>2008-10-11T16:50:42Z</time></trkpt>
<trkpt lat="46.24881667" lon="5.38468333"><ele>368</ele><time>2008-10-11T16:50:44Z</time></trkpt>
<trkpt lat="46.24871667" lon="5.38485000"><ele>367</ele><time>2008-10-11T16:50:46Z</time></trkpt>
<trkpt lat="46.24846667" lon="5.38500000"><ele>365</ele><time>2008-10-11T16:50:50Z</time></trkpt>
<trkpt lat="46.24833333" lon="5.38495000"><ele>364</ele><time>2008-10-11T16:50:52Z</time></trkpt>
<trkpt lat="46.24820000" lon="5.38485000"><ele>363</ele><time>2008-10-11T16:50:54Z</time></trkpt>
<trkpt lat="46.24806667" lon="5.38476667"><ele>363</ele><time>2008-10-11T16:50:56Z</time></trkpt>
<trkpt lat="46.24791667" lon="5.38473333"><ele>362</ele><time>2008-10-11T16:50:58Z</time></trkpt>
<trkpt lat="46.24765000" lon="5.38476667"><ele>361</ele><time>2008-10-11T16:51:02Z</time></trkpt>
<trkpt lat="46.24751667" lon="5.38480000"><ele>361</ele><time>2008-10-11T16:51:04Z</time></trkpt>
<trkpt lat="46.24723333" lon="5.38475000"><ele>360</ele><time>2008-10-11T16:51:08Z</time></trkpt>
<trkpt lat="46.24708333" lon="5.38470000"><ele>359</ele><time>2008-10-11T16:51:10Z</time></trkpt>
<trkpt lat="46.24693333" lon="5.38466667"><ele>358</ele><time>2008-10-11T16:51:12Z</time></trkpt>
<trkpt lat="46.24680000" lon="5.38463333"><ele>358</ele><time>2008-10-11T16:51:14Z</time></trkpt>
<trkpt lat="46.24665000" lon="5.38461667"><ele>357</ele><time>2008-10-11T16:51:16Z</time></trkpt>
<trkpt lat="46.24620000" lon="5.38455000"><ele>354</ele><time>2008-10-11T16:51:22Z</time></trkpt>
<trkpt lat="46.24591667" lon="5.38448333"><ele>353</ele><time>2008-10-11T16:51:26Z</time></trkpt>
<trkpt lat="46.24558333" lon="5.38436667"><ele>351</ele><time>2008-10-11T16:51:32Z</time></trkpt>
<trkpt lat="46.24546667" lon="5.38425000"><ele>351</ele><time>2008-10-11T16:51:36Z</time></trkpt>
<trkpt lat="46.24530000" lon="5.38413333"><ele>351</ele><time>2008-10-11T16:51:40Z</time></trkpt>
<trkpt lat="46.24510000" lon="5.38408333"><ele>351</ele><time>2008-10-11T16:51:44Z</time></trkpt>
<trkpt lat="46.24495000" lon="5.38425000"><ele>350</ele><time>2008-10-11T16:52:22Z</time></trkpt>
<trkpt lat="46.24476667" lon="5.38435000"><ele>349</ele><time>2008-10-11T16:52:26Z</time></trkpt>
<trkpt lat="46.24455000" lon="5.38435000"><ele>348</ele><time>2008-10-11T16:52:30Z</time></trkpt>
<trkpt lat="46.24430000" lon="5.38426667"><ele>347</ele><time>2008-10-11T16:52:34Z</time></trkpt>
<trkpt lat="46.24395000" lon="5.38416667"><ele>345</ele><time>2008-10-11T16:52:40Z</time></trkpt>
<trkpt lat="46.24381667" lon="5.38413333"><ele>344</ele><time>2008-10-11T16:52:46Z</time></trkpt>
<trkpt lat="46.24366667" lon="5.38410000"><ele>343</ele><time>2008-10-11T17:03:50Z</time></trkpt>
<trkpt lat="46.24351667" lon="5.38410000"><ele>341</ele><time>2008-10-11T17:03:54Z</time></trkpt>
<trkpt lat="46.24336667" lon="5.38416667"><ele>341</ele><time>2008-10-11T17:03:58Z</time></trkpt>
<trkpt lat="46.24320000" lon="5.38416667"><ele>342</ele><time>2008-10-11T17:04:02Z</time></trkpt>
<trkpt lat="46.24305000" lon="5.38408333"><ele>343</ele><time>2008-10-11T17:04:06Z</time></trkpt>
<trkpt lat="46.24290000" lon="5.38395000"><ele>343</ele><time>2008-10-11T17:04:10Z</time></trkpt>
<trkpt lat="46.24255000" lon="5.38358333"><ele>340</ele><time>2008-10-11T17:04:18Z</time></trkpt>
<trkpt lat="46.24243333" lon="5.38348333"><ele>340</ele><time>2008-10-11T17:04:22Z</time></trkpt>
<trkpt lat="46.24226667" lon="5.38341667"><ele>339</ele><time>2008-10-11T17:04:26Z</time></trkpt>
<trkpt lat="46.24208333" lon="5.38336667"><ele>338</ele><time>2008-10-11T17:04:30Z</time></trkpt>
<trkpt lat="46.24190000" lon="5.38340000"><ele>339</ele><time>2008-10-11T17:04:34Z</time></trkpt>
<trkpt lat="46.24175000" lon="5.38345000"><ele>339</ele><time>2008-10-11T17:04:38Z</time></trkpt>
<trkpt lat="46.24151667" lon="5.38350000"><ele>340</ele><time>2008-10-11T17:04:44Z</time></trkpt>
<trkpt lat="46.24125000" lon="5.38355000"><ele>342</ele><time>2008-10-11T17:04:53Z</time></trkpt>
<trkpt lat="46.24110000" lon="5.38358333"><ele>342</ele><time>2008-10-11T17:04:57Z</time></trkpt>
<trkpt lat="46.24095000" lon="5.38365000"><ele>343</ele><time>2008-10-11T17:05:01Z</time></trkpt>
<trkpt lat="46.24080000" lon="5.38368333"><ele>344</ele><time>2008-10-11T17:05:05Z</time></trkpt>
<trkpt lat="46.24063333" lon="5.38368333"><ele>344</ele><time>2008-10-11T17:05:09Z</time></trkpt>
<trkpt lat="46.24045000" lon="5.38363333"><ele>343</ele><time>2008-10-11T17:05:13Z</time></trkpt>
<trkpt lat="46.24020000" lon="5.38358333"><ele>343</ele><time>2008-10-11T17:05:19Z</time></trkpt>
<trkpt lat="46.23993333" lon="5.38355000"><ele>344</ele><time>2008-10-11T17:05:27Z</time></trkpt>
<trkpt lat="46.23976667" lon="5.38353333"><ele>345</ele><time>2008-10-11T17:05:33Z</time></trkpt>
<trkpt lat="46.23961667" lon="5.38353333"><ele>347</ele><time>2008-10-11T17:05:39Z</time></trkpt>
<trkpt lat="46.23940000" lon="5.38353333"><ele>349</ele><time>2008-10-11T17:05:49Z</time></trkpt>
<trkpt lat="46.23911667" lon="5.38351667"><ele>350</ele><time>2008-10-11T17:06:01Z</time></trkpt>
<trkpt lat="46.23898333" lon="5.38348333"><ele>351</ele><time>2008-10-11T17:06:07Z</time></trkpt>
<trkpt lat="46.23883333" lon="5.38343333"><ele>351</ele><time>2008-10-11T17:06:13Z</time></trkpt>
<trkpt lat="46.23866667" lon="5.38340000"><ele>352</ele><time>2008-10-11T17:06:19Z</time></trkpt>
<trkpt lat="46.23850000" lon="5.38338333"><ele>353</ele><time>2008-10-11T17:06:25Z</time></trkpt>
<trkpt lat="46.23835000" lon="5.38341667"><ele>354</ele><time>2008-10-11T17:06:31Z</time></trkpt>
<trkpt lat="46.23806667" lon="5.38345000"><ele>355</ele><time>2008-10-11T17:06:43Z</time></trkpt>
<trkpt lat="46.23786667" lon="5.38348333"><ele>356</ele><time>2008-10-11T17:06:51Z</time></trkpt>
<trkpt lat="46.23771667" lon="5.38350000"><ele>356</ele><time>2008-10-11T17:06:57Z</time></trkpt>
<trkpt lat="46.23715000" lon="5.38355000"><ele>358</ele><time>2008-10-11T17:07:17Z</time></trkpt>
<trkpt lat="46.23698333" lon="5.38353333"><ele>358</ele><time>2008-10-11T17:07:23Z</time></trkpt>
<trkpt lat="46.23680000" lon="5.38351667"><ele>358</ele><time>2008-10-11T17:07:29Z</time></trkpt>
<trkpt lat="46.23655000" lon="5.38343333"><ele>358</ele><time>2008-10-11T17:07:37Z</time></trkpt>
<trkpt lat="46.23630000" lon="5.38335000"><ele>358</ele><time>2008-10-11T17:07:46Z</time></trkpt>
<trkpt lat="46.23615000" lon="5.38328333"><ele>358</ele><time>2008-10-11T17:07:50Z</time></trkpt>
<trkpt lat="46.23586667" lon="5.38315000"><ele>359</ele><time>2008-10-11T17:07:58Z</time></trkpt>
<trkpt lat="46.23573333" lon="5.38310000"><ele>359</ele><time>2008-10-11T17:08:02Z</time></trkpt>
<trkpt lat="46.23553333" lon="5.38310000"><ele>360</ele><time>2008-10-11T17:08:08Z</time></trkpt>
<trkpt lat="46.23525000" lon="5.38303333"><ele>361</ele><time>2008-10-11T17:08:16Z</time></trkpt>
<trkpt lat="46.23506667" lon="5.38295000"><ele>360</ele><time>2008-10-11T17:08:22Z</time></trkpt>
<trkpt lat="46.23476667" lon="5.38276667"><ele>360</ele><time>2008-10-11T17:08:32Z</time></trkpt>
<trkpt lat="46.23458333" lon="5.38265000"><ele>361</ele><time>2008-10-11T17:08:38Z</time></trkpt>
<trkpt lat="46.23440000" lon="5.38258333"><ele>363</ele><time>2008-10-11T17:08:44Z</time></trkpt>
<trkpt lat="46.23423333" lon="5.38258333"><ele>365</ele><time>2008-10-11T17:08:50Z</time></trkpt>
<trkpt lat="46.23405000" lon="5.38256667"><ele>367</ele><time>2008-10-11T17:08:56Z</time></trkpt>
<trkpt lat="46.23385000" lon="5.38260000"><ele>367</ele><time>2008-10-11T17:09:02Z</time></trkpt>
<trkpt lat="46.23370000" lon="5.38261667"><ele>367</ele><time>2008-10-11T17:09:06Z</time></trkpt>
<trkpt lat="46.23350000" lon="5.38260000"><ele>367</ele><time>2008-10-11T17:09:10Z</time></trkpt>
<trkpt lat="46.23333333" lon="5.38256667"><ele>367</ele><time>2008-10-11T17:09:14Z</time></trkpt>
<trkpt lat="46.23315000" lon="5.38255000"><ele>367</ele><time>2008-10-11T17:09:20Z</time></trkpt>
<trkpt lat="46.23295000" lon="5.38255000"><ele>367</ele><time>2008-10-11T17:09:26Z</time></trkpt>
<trkpt lat="46.23278333" lon="5.38253333"><ele>366</ele><time>2008-10-11T17:09:30Z</time></trkpt>
<trkpt lat="46.23261667" lon="5.38255000"><ele>366</ele><time>2008-10-11T17:09:34Z</time></trkpt>
<trkpt lat="46.23235000" lon="5.38256667"><ele>365</ele><time>2008-10-11T17:09:40Z</time></trkpt>
<trkpt lat="46.23216667" lon="5.38251667"><ele>364</ele><time>2008-10-11T17:09:44Z</time></trkpt>
<trkpt lat="46.23198333" lon="5.38245000"><ele>363</ele><time>2008-10-11T17:09:48Z</time></trkpt>
<trkpt lat="46.23130000" lon="5.38225000"><ele>367</ele><time>2008-10-11T17:10:06Z</time></trkpt>
<trkpt lat="46.23113333" lon="5.38225000"><ele>367</ele><time>2008-10-11T17:10:12Z</time></trkpt>
<trkpt lat="46.23098333" lon="5.38223333"><ele>367</ele><time>2008-10-11T17:10:18Z</time></trkpt>
<trkpt lat="46.23078333" lon="5.38225000"><ele>368</ele><time>2008-10-11T17:10:24Z</time></trkpt>
<trkpt lat="46.23061667" lon="5.38228333"><ele>368</ele><time>2008-10-11T17:10:30Z</time></trkpt>
<trkpt lat="46.23040000" lon="5.38228333"><ele>368</ele><time>2008-10-11T17:10:36Z</time></trkpt>
<trkpt lat="46.23011667" lon="5.38230000"><ele>368</ele><time>2008-10-11T17:10:44Z</time></trkpt>
<trkpt lat="46.22995000" lon="5.38228333"><ele>367</ele><time>2008-10-11T17:10:48Z</time></trkpt>
<trkpt lat="46.22976667" lon="5.38226667"><ele>367</ele><time>2008-10-11T17:10:52Z</time></trkpt>
<trkpt lat="46.22946667" lon="5.38223333"><ele>366</ele><time>2008-10-11T17:10:58Z</time></trkpt>
<trkpt lat="46.22925000" lon="5.38225000"><ele>366</ele><time>2008-10-11T17:11:02Z</time></trkpt>
<trkpt lat="46.22903333" lon="5.38231667"><ele>367</ele><time>2008-10-11T17:11:06Z</time></trkpt>
<trkpt lat="46.22886667" lon="5.38240000"><ele>368</ele><time>2008-10-11T17:11:10Z</time></trkpt>
<trkpt lat="46.22863333" lon="5.38250000"><ele>368</ele><time>2008-10-11T17:11:16Z</time></trkpt>
<trkpt lat="46.22845000" lon="5.38255000"><ele>369</ele><time>2008-10-11T17:11:20Z</time></trkpt>
<trkpt lat="46.22830000" lon="5.38260000"><ele>369</ele><time>2008-10-11T17:11:24Z</time></trkpt>
<trkpt lat="46.22791667" lon="5.38273333"><ele>368</ele><time>2008-10-11T17:11:34Z</time></trkpt>
<trkpt lat="46.22776667" lon="5.38281667"><ele>367</ele><time>2008-10-11T17:11:38Z</time></trkpt>
<trkpt lat="46.22761667" lon="5.38291667"><ele>367</ele><time>2008-10-11T17:11:42Z</time></trkpt>
<trkpt lat="46.22746667" lon="5.38305000"><ele>368</ele><time>2008-10-11T17:11:46Z</time></trkpt>
<trkpt lat="46.22731667" lon="5.38316667"><ele>368</ele><time>2008-10-11T17:11:50Z</time></trkpt>
<trkpt lat="46.22716667" lon="5.38323333"><ele>368</ele><time>2008-10-11T17:11:54Z</time></trkpt>
<trkpt lat="46.22701667" lon="5.38326667"><ele>369</ele><time>2008-10-11T17:11:58Z</time></trkpt>
<trkpt lat="46.22688333" lon="5.38330000"><ele>369</ele><time>2008-10-11T17:12:02Z</time></trkpt>
<trkpt lat="46.22661667" lon="5.38333333"><ele>370</ele><time>2008-10-11T17:12:10Z</time></trkpt>
<trkpt lat="46.22643333" lon="5.38336667"><ele>371</ele><time>2008-10-11T17:12:16Z</time></trkpt>
<trkpt lat="46.22620000" lon="5.38340000"><ele>372</ele><time>2008-10-11T17:12:24Z</time></trkpt>
<trkpt lat="46.22593333" lon="5.38341667"><ele>374</ele><time>2008-10-11T17:12:34Z</time></trkpt>
<trkpt lat="46.22570000" lon="5.38345000"><ele>374</ele><time>2008-10-11T17:12:42Z</time></trkpt>
<trkpt lat="46.22553333" lon="5.38348333"><ele>374</ele><time>2008-10-11T17:12:48Z</time></trkpt>
<trkpt lat="46.22538333" lon="5.38351667"><ele>375</ele><time>2008-10-11T17:12:54Z</time></trkpt>
<trkpt lat="46.22495000" lon="5.38356667"><ele>375</ele><time>2008-10-11T17:13:12Z</time></trkpt>
<trkpt lat="46.22506667" lon="5.38336667"><ele>372</ele><time>2008-10-11T17:13:22Z</time></trkpt>
<trkpt lat="46.22506667" lon="5.38313333"><ele>368</ele><time>2008-10-11T17:13:26Z</time></trkpt>
<trkpt lat="46.22496667" lon="5.38300000"><ele>366</ele><time>2008-10-11T17:13:28Z</time></trkpt>
<trkpt lat="46.22463333" lon="5.38258333"><ele>360</ele><time>2008-10-11T17:13:34Z</time></trkpt>
<trkpt lat="46.22448333" lon="5.38245000"><ele>358</ele><time>2008-10-11T17:13:36Z</time></trkpt>
<trkpt lat="46.22416667" lon="5.38216667"><ele>354</ele><time>2008-10-11T17:13:40Z</time></trkpt>
<trkpt lat="46.22401667" lon="5.38196667"><ele>351</ele><time>2008-10-11T17:13:42Z</time></trkpt>
<trkpt lat="46.22386667" lon="5.38178333"><ele>348</ele><time>2008-10-11T17:13:44Z</time></trkpt>
<trkpt lat="46.22368333" lon="5.38165000"><ele>346</ele><time>2008-10-11T17:13:46Z</time></trkpt>
<trkpt lat="46.22348333" lon="5.38153333"><ele>344</ele><time>2008-10-11T17:13:48Z</time></trkpt>
<trkpt lat="46.22313333" lon="5.38128333"><ele>341</ele><time>2008-10-11T17:13:52Z</time></trkpt>
<trkpt lat="46.22296667" lon="5.38108333"><ele>338</ele><time>2008-10-11T17:13:54Z</time></trkpt>
<trkpt lat="46.22278333" lon="5.38091667"><ele>336</ele><time>2008-10-11T17:13:56Z</time></trkpt>
<trkpt lat="46.22243333" lon="5.38056667"><ele>333</ele><time>2008-10-11T17:14:00Z</time></trkpt>
<trkpt lat="46.22231667" lon="5.38033333"><ele>332</ele><time>2008-10-11T17:14:02Z</time></trkpt>
<trkpt lat="46.22223333" lon="5.38008333"><ele>332</ele><time>2008-10-11T17:14:04Z</time></trkpt>
<trkpt lat="46.22208333" lon="5.37961667"><ele>332</ele><time>2008-10-11T17:14:08Z</time></trkpt>
<trkpt lat="46.22205000" lon="5.37936667"><ele>331</ele><time>2008-10-11T17:14:10Z</time></trkpt>
<trkpt lat="46.22205000" lon="5.37911667"><ele>331</ele><time>2008-10-11T17:14:12Z</time></trkpt>
<trkpt lat="46.22201667" lon="5.37885000"><ele>330</ele><time>2008-10-11T17:14:14Z</time></trkpt>
<trkpt lat="46.22190000" lon="5.37806667"><ele>327</ele><time>2008-10-11T17:14:20Z</time></trkpt>
<trkpt lat="46.22180000" lon="5.37781667"><ele>326</ele><time>2008-10-11T17:14:22Z</time></trkpt>
<trkpt lat="46.22161667" lon="5.37731667"><ele>326</ele><time>2008-10-11T17:14:26Z</time></trkpt>
<trkpt lat="46.22153333" lon="5.37706667"><ele>325</ele><time>2008-10-11T17:14:28Z</time></trkpt>
<trkpt lat="46.22138333" lon="5.37663333"><ele>324</ele><time>2008-10-11T17:14:32Z</time></trkpt>
<trkpt lat="46.22130000" lon="5.37645000"><ele>324</ele><time>2008-10-11T17:14:34Z</time></trkpt>
<trkpt lat="46.22120000" lon="5.37628333"><ele>324</ele><time>2008-10-11T17:14:36Z</time></trkpt>
<trkpt lat="46.22110000" lon="5.37615000"><ele>324</ele><time>2008-10-11T17:14:38Z</time></trkpt>
<trkpt lat="46.22100000" lon="5.37600000"><ele>324</ele><time>2008-10-11T17:14:40Z</time></trkpt>
<trkpt lat="46.22080000" lon="5.37565000"><ele>323</ele><time>2008-10-11T17:14:44Z</time></trkpt>
<trkpt lat="46.22071667" lon="5.37545000"><ele>323</ele><time>2008-10-11T17:14:46Z</time></trkpt>
<trkpt lat="46.22066667" lon="5.37523333"><ele>324</ele><time>2008-10-11T17:14:48Z</time></trkpt>
<trkpt lat="46.22063333" lon="5.37501667"><ele>325</ele><time>2008-10-11T17:14:50Z</time></trkpt>
<trkpt lat="46.22048333" lon="5.37401667"><ele>325</ele><time>2008-10-11T17:15:02Z</time></trkpt>
<trkpt lat="46.22038333" lon="5.37371667"><ele>325</ele><time>2008-10-11T17:15:06Z</time></trkpt>
<trkpt lat="46.22023333" lon="5.37343333"><ele>325</ele><time>2008-10-11T17:15:10Z</time></trkpt>
<trkpt lat="46.22006667" lon="5.37315000"><ele>325</ele><time>2008-10-11T17:15:14Z</time></trkpt>
<trkpt lat="46.21991667" lon="5.37290000"><ele>326</ele><time>2008-10-11T17:15:18Z</time></trkpt>
<trkpt lat="46.21981667" lon="5.37265000"><ele>325</ele><time>2008-10-11T17:15:22Z</time></trkpt>
<trkpt lat="46.21970000" lon="5.37243333"><ele>324</ele><time>2008-10-11T17:15:26Z</time></trkpt>
<trkpt lat="46.21953333" lon="5.37226667"><ele>323</ele><time>2008-10-11T17:15:30Z</time></trkpt>
<trkpt lat="46.21935000" lon="5.37213333"><ele>323</ele><time>2008-10-11T17:15:34Z</time></trkpt>
<trkpt lat="46.21916667" lon="5.37203333"><ele>323</ele><time>2008-10-11T17:15:38Z</time></trkpt>
<trkpt lat="46.21901667" lon="5.37195000"><ele>323</ele><time>2008-10-11T17:15:42Z</time></trkpt>
<trkpt lat="46.21896667" lon="5.37175000"><ele>322</ele><time>2008-10-11T17:15:46Z</time></trkpt>
<trkpt lat="46.21895000" lon="5.37153333"><ele>322</ele><time>2008-10-11T17:15:50Z</time></trkpt>
<trkpt lat="46.21891667" lon="5.37131667"><ele>322</ele><time>2008-10-11T17:15:54Z</time></trkpt>
<trkpt lat="46.21886667" lon="5.37111667"><ele>322</ele><time>2008-10-11T17:15:58Z</time></trkpt>
<trkpt lat="46.21880000" lon="5.37083333"><ele>323</ele><time>2008-10-11T17:16:04Z</time></trkpt>
<trkpt lat="46.21873333" lon="5.37063333"><ele>322</ele><time>2008-10-11T17:16:08Z</time></trkpt>
<trkpt lat="46.21858333" lon="5.37018333"><ele>322</ele><time>2008-10-11T17:16:16Z</time></trkpt>
<trkpt lat="46.21841667" lon="5.36956667"><ele>322</ele><time>2008-10-11T17:16:26Z</time></trkpt>
<trkpt lat="46.21841667" lon="5.36920000"><ele>323</ele><time>2008-10-11T17:16:30Z</time></trkpt>
<trkpt lat="46.21841667" lon="5.36900000"><ele>323</ele><time>2008-10-11T17:16:32Z</time></trkpt>
<trkpt lat="46.21840000" lon="5.36840000"><ele>322</ele><time>2008-10-11T17:16:38Z</time></trkpt>
<trkpt lat="46.21845000" lon="5.36816667"><ele>322</ele><time>2008-10-11T17:16:42Z</time></trkpt>
<trkpt lat="46.21861667" lon="5.36811667"><ele>322</ele><time>2008-10-11T17:16:46Z</time></trkpt>
<trkpt lat="46.21878333" lon="5.36808333"><ele>322</ele><time>2008-10-11T17:16:50Z</time></trkpt>
<trkpt lat="46.21888333" lon="5.36793333"><ele>321</ele><time>2008-10-11T17:16:54Z</time></trkpt>
<trkpt lat="46.21895000" lon="5.36770000"><ele>321</ele><time>2008-10-11T17:16:58Z</time></trkpt>
<trkpt lat="46.21900000" lon="5.36745000"><ele>321</ele><time>2008-10-11T17:17:02Z</time></trkpt>
<trkpt lat="46.21908333" lon="5.36705000"><ele>320</ele><time>2008-10-11T17:17:08Z</time></trkpt>
<trkpt lat="46.21920000" lon="5.36680000"><ele>320</ele><time>2008-10-11T17:17:12Z</time></trkpt>
<trkpt lat="46.21931667" lon="5.36658333"><ele>320</ele><time>2008-10-11T17:17:16Z</time></trkpt>
<trkpt lat="46.21951667" lon="5.36650000"><ele>320</ele><time>2008-10-11T17:17:20Z</time></trkpt>
<trkpt lat="46.21971667" lon="5.36648333"><ele>320</ele><time>2008-10-11T17:17:24Z</time></trkpt>
<trkpt lat="46.21981667" lon="5.36633333"><ele>320</ele><time>2008-10-11T17:17:28Z</time></trkpt>
<trkpt lat="46.21976667" lon="5.36615000"><ele>320</ele><time>2008-10-11T17:17:32Z</time></trkpt>
<trkpt lat="46.21966667" lon="5.36600000"><ele>321</ele><time>2008-10-11T17:17:36Z</time></trkpt>
<trkpt lat="46.21956667" lon="5.36585000"><ele>321</ele><time>2008-10-11T17:17:40Z</time></trkpt>
<trkpt lat="46.21946667" lon="5.36568333"><ele>322</ele><time>2008-10-11T17:17:44Z</time></trkpt>
<trkpt lat="46.21938333" lon="5.36551667"><ele>322</ele><time>2008-10-11T17:17:48Z</time></trkpt>
<trkpt lat="46.21935000" lon="5.36525000"><ele>323</ele><time>2008-10-11T17:17:54Z</time></trkpt>
<trkpt lat="46.21935000" lon="5.36501667"><ele>324</ele><time>2008-10-11T17:18:00Z</time></trkpt>
<trkpt lat="46.21936667" lon="5.36481667"><ele>326</ele><time>2008-10-11T17:18:05Z</time></trkpt>
<trkpt lat="46.21933333" lon="5.36461667"><ele>327</ele><time>2008-10-11T17:18:11Z</time></trkpt>
<trkpt lat="46.21926667" lon="5.36441667"><ele>328</ele><time>2008-10-11T17:18:17Z</time></trkpt>
<trkpt lat="46.21918333" lon="5.36423333"><ele>330</ele><time>2008-10-11T17:18:23Z</time></trkpt>
<trkpt lat="46.21908333" lon="5.36408333"><ele>331</ele><time>2008-10-11T17:18:29Z</time></trkpt>
<trkpt lat="46.21893333" lon="5.36396667"><ele>331</ele><time>2008-10-11T17:18:35Z</time></trkpt>
<trkpt lat="46.21881667" lon="5.36385000"><ele>331</ele><time>2008-10-11T17:18:41Z</time></trkpt>
<trkpt lat="46.21870000" lon="5.36368333"><ele>331</ele><time>2008-10-11T17:18:47Z</time></trkpt>
<trkpt lat="46.21860000" lon="5.36348333"><ele>332</ele><time>2008-10-11T17:18:53Z</time></trkpt>
<trkpt lat="46.21848333" lon="5.36325000"><ele>333</ele><time>2008-10-11T17:18:59Z</time></trkpt>
<trkpt lat="46.21835000" lon="5.36300000"><ele>333</ele><time>2008-10-11T17:19:05Z</time></trkpt>
<trkpt lat="46.21826667" lon="5.36283333"><ele>333</ele><time>2008-10-11T17:19:09Z</time></trkpt>
<trkpt lat="46.21805000" lon="5.36241667"><ele>333</ele><time>2008-10-11T17:19:19Z</time></trkpt>
<trkpt lat="46.21803333" lon="5.36216667"><ele>335</ele><time>2008-10-11T17:19:25Z</time></trkpt>
<trkpt lat="46.21818333" lon="5.36215000"><ele>338</ele><time>2008-10-11T17:19:31Z</time></trkpt>
<trkpt lat="46.21833333" lon="5.36220000"><ele>340</ele><time>2008-10-11T17:19:39Z</time></trkpt>
<trkpt lat="46.21846667" lon="5.36223333"><ele>342</ele><time>2008-10-11T17:19:49Z</time></trkpt>
<trkpt lat="46.21860000" lon="5.36231667"><ele>344</ele><time>2008-10-11T17:19:59Z</time></trkpt>
<trkpt lat="46.21878333" lon="5.36240000"><ele>346</ele><time>2008-10-11T17:20:11Z</time></trkpt>
<trkpt lat="46.21893333" lon="5.36241667"><ele>347</ele><time>2008-10-11T17:20:21Z</time></trkpt>
<trkpt lat="46.21906667" lon="5.36246667"><ele>348</ele><time>2008-10-11T17:20:31Z</time></trkpt>
<trkpt lat="46.21920000" lon="5.36250000"><ele>349</ele><time>2008-10-11T17:20:39Z</time></trkpt>
<trkpt lat="46.21935000" lon="5.36255000"><ele>350</ele><time>2008-10-11T17:20:49Z</time></trkpt>
<trkpt lat="46.21950000" lon="5.36258333"><ele>352</ele><time>2008-10-11T17:20:57Z</time></trkpt>
<trkpt lat="46.21965000" lon="5.36260000"><ele>353</ele><time>2008-10-11T17:21:05Z</time></trkpt>
<trkpt lat="46.21981667" lon="5.36256667"><ele>355</ele><time>2008-10-11T17:21:15Z</time></trkpt>
<trkpt lat="46.21986667" lon="5.36235000"><ele>357</ele><time>2008-10-11T17:21:25Z</time></trkpt>
<trkpt lat="46.21981667" lon="5.36213333"><ele>359</ele><time>2008-10-11T17:21:35Z</time></trkpt>
<trkpt lat="46.21978333" lon="5.36193333"><ele>360</ele><time>2008-10-11T17:21:45Z</time></trkpt>
<trkpt lat="46.21975000" lon="5.36173333"><ele>362</ele><time>2008-10-11T17:21:55Z</time></trkpt>
<trkpt lat="46.21970000" lon="5.36155000"><ele>364</ele><time>2008-10-11T17:22:05Z</time></trkpt>
<trkpt lat="46.21961667" lon="5.36138333"><ele>365</ele><time>2008-10-11T17:22:17Z</time></trkpt>
<trkpt lat="46.21953333" lon="5.36120000"><ele>366</ele><time>2008-10-11T17:22:29Z</time></trkpt>
<trkpt lat="46.21950000" lon="5.36098333"><ele>368</ele><time>2008-10-11T17:22:41Z</time></trkpt>
<trkpt lat="46.21945000" lon="5.36080000"><ele>369</ele><time>2008-10-11T17:22:59Z</time></trkpt>
<trkpt lat="46.21943333" lon="5.36060000"><ele>371</ele><time>2008-10-11T17:23:21Z</time></trkpt>
<trkpt lat="46.21943333" lon="5.36038333"><ele>373</ele><time>2008-10-11T17:23:33Z</time></trkpt>
<trkpt lat="46.21941667" lon="5.36018333"><ele>374</ele><time>2008-10-11T17:23:43Z</time></trkpt>
<trkpt lat="46.21938333" lon="5.35998333"><ele>375</ele><time>2008-10-11T17:23:53Z</time></trkpt>
<trkpt lat="46.21935000" lon="5.35978333"><ele>376</ele><time>2008-10-11T17:24:01Z</time></trkpt>
<trkpt lat="46.21933333" lon="5.35956667"><ele>377</ele><time>2008-10-11T17:24:11Z</time></trkpt>
<trkpt lat="46.21933333" lon="5.35936667"><ele>379</ele><time>2008-10-11T17:24:19Z</time></trkpt>
<trkpt lat="46.21933333" lon="5.35913333"><ele>381</ele><time>2008-10-11T17:24:29Z</time></trkpt>
<trkpt lat="46.21928333" lon="5.35880000"><ele>382</ele><time>2008-10-11T17:24:47Z</time></trkpt>
<trkpt lat="46.21930000" lon="5.35858333"><ele>385</ele><time>2008-10-11T17:25:05Z</time></trkpt>
<trkpt lat="46.21933333" lon="5.35838333"><ele>388</ele><time>2008-10-11T17:25:35Z</time></trkpt>
<trkpt lat="46.21931667" lon="5.35811667"><ele>390</ele><time>2008-10-11T17:25:53Z</time></trkpt>
<trkpt lat="46.21931667" lon="5.35785000"><ele>393</ele><time>2008-10-11T17:26:11Z</time></trkpt>
<trkpt lat="46.21930000" lon="5.35753333"><ele>396</ele><time>2008-10-11T17:26:29Z</time></trkpt>
<trkpt lat="46.21926667" lon="5.35718333"><ele>397</ele><time>2008-10-11T17:26:49Z</time></trkpt>
<trkpt lat="46.21926667" lon="5.35695000"><ele>398</ele><time>2008-10-11T17:27:07Z</time></trkpt>
<trkpt lat="46.21928333" lon="5.35656667"><ele>401</ele><time>2008-10-11T17:27:27Z</time></trkpt>
<trkpt lat="46.21930000" lon="5.35636667"><ele>402</ele><time>2008-10-11T17:27:35Z</time></trkpt>
<trkpt lat="46.21941667" lon="5.35620000"><ele>405</ele><time>2008-10-11T17:32:32Z</time></trkpt>
<trkpt lat="46.21956667" lon="5.35615000"><ele>407</ele><time>2008-10-11T17:32:44Z</time></trkpt>
<trkpt lat="46.21970000" lon="5.35606667"><ele>409</ele><time>2008-10-11T17:32:52Z</time></trkpt>
<trkpt lat="46.21983333" lon="5.35601667"><ele>410</ele><time>2008-10-11T17:33:00Z</time></trkpt>
<trkpt lat="46.21998333" lon="5.35603333"><ele>411</ele><time>2008-10-11T17:33:08Z</time></trkpt>
<trkpt lat="46.22018333" lon="5.35601667"><ele>413</ele><time>2008-10-11T17:33:16Z</time></trkpt>
<trkpt lat="46.22033333" lon="5.35596667"><ele>414</ele><time>2008-10-11T17:33:24Z</time></trkpt>
<trkpt lat="46.22046667" lon="5.35593333"><ele>414</ele><time>2008-10-11T17:33:30Z</time></trkpt>
<trkpt lat="46.22066667" lon="5.35591667"><ele>414</ele><time>2008-10-11T17:33:34Z</time></trkpt>
<trkpt lat="46.22083333" lon="5.35586667"><ele>414</ele><time>2008-10-11T17:33:38Z</time></trkpt>
<trkpt lat="46.22096667" lon="5.35583333"><ele>415</ele><time>2008-10-11T17:33:42Z</time></trkpt>
<trkpt lat="46.22113333" lon="5.35583333"><ele>415</ele><time>2008-10-11T17:33:48Z</time></trkpt>
<trkpt lat="46.22128333" lon="5.35595000"><ele>415</ele><time>2008-10-11T17:33:56Z</time></trkpt>
<trkpt lat="46.22146667" lon="5.35608333"><ele>416</ele><time>2008-10-11T17:34:06Z</time></trkpt>
<trkpt lat="46.22158333" lon="5.35618333"><ele>416</ele><time>2008-10-11T17:34:14Z</time></trkpt>
<trkpt lat="46.22173333" lon="5.35628333"><ele>418</ele><time>2008-10-11T17:34:22Z</time></trkpt>
<trkpt lat="46.22186667" lon="5.35636667"><ele>419</ele><time>2008-10-11T17:34:34Z</time></trkpt>
<trkpt lat="46.22200000" lon="5.35643333"><ele>420</ele><time>2008-10-11T17:34:52Z</time></trkpt>
<trkpt lat="46.22221667" lon="5.35645000"><ele>422</ele><time>2008-10-11T17:35:10Z</time></trkpt>
<trkpt lat="46.22241667" lon="5.35658333"><ele>424</ele><time>2008-10-11T17:35:28Z</time></trkpt>
<trkpt lat="46.22253333" lon="5.35668333"><ele>425</ele><time>2008-10-11T17:35:38Z</time></trkpt>
<trkpt lat="46.22270000" lon="5.35680000"><ele>426</ele><time>2008-10-11T17:35:50Z</time></trkpt>
<trkpt lat="46.22283333" lon="5.35688333"><ele>428</ele><time>2008-10-11T17:36:00Z</time></trkpt>
<trkpt lat="46.22298333" lon="5.35695000"><ele>430</ele><time>2008-10-11T17:36:18Z</time></trkpt>
<trkpt lat="46.22313333" lon="5.35686667"><ele>433</ele><time>2008-10-11T17:36:36Z</time></trkpt>
<trkpt lat="46.22330000" lon="5.35685000"><ele>436</ele><time>2008-10-11T17:36:58Z</time></trkpt>
<trkpt lat="46.22343333" lon="5.35678333"><ele>438</ele><time>2008-10-11T17:37:16Z</time></trkpt>
<trkpt lat="46.22360000" lon="5.35673333"><ele>441</ele><time>2008-10-11T17:37:34Z</time></trkpt>
<trkpt lat="46.22376667" lon="5.35671667"><ele>442</ele><time>2008-10-11T17:38:02Z</time></trkpt>
<trkpt lat="46.22395000" lon="5.35663333"><ele>445</ele><time>2008-10-11T17:38:20Z</time></trkpt>
<trkpt lat="46.22408333" lon="5.35658333"><ele>447</ele><time>2008-10-11T17:38:28Z</time></trkpt>
<trkpt lat="46.22418333" lon="5.35645000"><ele>451</ele><time>2008-10-11T17:38:36Z</time></trkpt>
<trkpt lat="46.22430000" lon="5.35633333"><ele>454</ele><time>2008-10-11T17:38:46Z</time></trkpt>
<trkpt lat="46.22448333" lon="5.35621667"><ele>457</ele><time>2008-10-11T17:39:04Z</time></trkpt>
<trkpt lat="46.22465000" lon="5.35621667"><ele>457</ele><time>2008-10-11T17:39:14Z</time></trkpt>
<trkpt lat="46.22478333" lon="5.35615000"><ele>457</ele><time>2008-10-11T17:39:22Z</time></trkpt>
<trkpt lat="46.22490000" lon="5.35601667"><ele>458</ele><time>2008-10-11T17:39:34Z</time></trkpt>
<trkpt lat="46.22508333" lon="5.35585000"><ele>458</ele><time>2008-10-11T17:39:52Z</time></trkpt>
<trkpt lat="46.22516667" lon="5.35563333"><ele>458</ele><time>2008-10-11T17:40:03Z</time></trkpt>
<trkpt lat="46.22503333" lon="5.35548333"><ele>457</ele><time>2008-10-11T17:40:15Z</time></trkpt>
<trkpt lat="46.22495000" lon="5.35530000"><ele>456</ele><time>2008-10-11T17:40:45Z</time></trkpt>
<trkpt lat="46.22480000" lon="5.35521667"><ele>457</ele><time>2008-10-11T17:40:53Z</time></trkpt>
<trkpt lat="46.22465000" lon="5.35515000"><ele>458</ele><time>2008-10-11T17:41:01Z</time></trkpt>
<trkpt lat="46.22448333" lon="5.35506667"><ele>459</ele><time>2008-10-11T17:41:09Z</time></trkpt>
<trkpt lat="46.22435000" lon="5.35503333"><ele>460</ele><time>2008-10-11T17:41:15Z</time></trkpt>
<trkpt lat="46.22408333" lon="5.35498333"><ele>461</ele><time>2008-10-11T17:41:27Z</time></trkpt>
<trkpt lat="46.22395000" lon="5.35491667"><ele>462</ele><time>2008-10-11T17:41:35Z</time></trkpt>
<trkpt lat="46.22376667" lon="5.35478333"><ele>462</ele><time>2008-10-11T17:41:45Z</time></trkpt>
<trkpt lat="46.22360000" lon="5.35461667"><ele>462</ele><time>2008-10-11T17:41:55Z</time></trkpt>
<trkpt lat="46.22350000" lon="5.35441667"><ele>462</ele><time>2008-10-11T17:42:03Z</time></trkpt>
<trkpt lat="46.22336667" lon="5.35425000"><ele>462</ele><time>2008-10-11T17:42:11Z</time></trkpt>
<trkpt lat="46.22325000" lon="5.35411667"><ele>462</ele><time>2008-10-11T17:42:17Z</time></trkpt>
<trkpt lat="46.22315000" lon="5.35396667"><ele>461</ele><time>2008-10-11T17:42:23Z</time></trkpt>
<trkpt lat="46.22300000" lon="5.35385000"><ele>461</ele><time>2008-10-11T17:42:29Z</time></trkpt>
<trkpt lat="46.22285000" lon="5.35375000"><ele>461</ele><time>2008-10-11T17:42:35Z</time></trkpt>
<trkpt lat="46.22268333" lon="5.35366667"><ele>462</ele><time>2008-10-11T17:42:41Z</time></trkpt>
<trkpt lat="46.22251667" lon="5.35360000"><ele>463</ele><time>2008-10-11T17:42:47Z</time></trkpt>
<trkpt lat="46.22233333" lon="5.35351667"><ele>463</ele><time>2008-10-11T17:42:53Z</time></trkpt>
<trkpt lat="46.22218333" lon="5.35341667"><ele>463</ele><time>2008-10-11T17:42:59Z</time></trkpt>
<trkpt lat="46.22206667" lon="5.35330000"><ele>462</ele><time>2008-10-11T17:43:03Z</time></trkpt>
<trkpt lat="46.22191667" lon="5.35313333"><ele>462</ele><time>2008-10-11T17:43:09Z</time></trkpt>
<trkpt lat="46.22175000" lon="5.35291667"><ele>462</ele><time>2008-10-11T17:43:17Z</time></trkpt>
<trkpt lat="46.22158333" lon="5.35280000"><ele>462</ele><time>2008-10-11T17:43:23Z</time></trkpt>
<trkpt lat="46.22140000" lon="5.35268333"><ele>462</ele><time>2008-10-11T17:43:29Z</time></trkpt>
<trkpt lat="46.22110000" lon="5.35248333"><ele>461</ele><time>2008-10-11T17:43:39Z</time></trkpt>
<trkpt lat="46.22091667" lon="5.35235000"><ele>461</ele><time>2008-10-11T17:43:45Z</time></trkpt>
<trkpt lat="46.22080000" lon="5.35225000"><ele>461</ele><time>2008-10-11T17:43:49Z</time></trkpt>
<trkpt lat="46.22065000" lon="5.35208333"><ele>460</ele><time>2008-10-11T17:43:55Z</time></trkpt>
<trkpt lat="46.22053333" lon="5.35185000"><ele>460</ele><time>2008-10-11T17:44:01Z</time></trkpt>
<trkpt lat="46.22061667" lon="5.35205000"><ele>460</ele><time>2008-10-11T17:44:27Z</time></trkpt>
<trkpt lat="46.22048333" lon="5.35178333"><ele>460</ele><time>2008-10-11T17:44:45Z</time></trkpt>
<trkpt lat="46.22033333" lon="5.35161667"><ele>460</ele><time>2008-10-11T17:44:51Z</time></trkpt>
<trkpt lat="46.22020000" lon="5.35153333"><ele>461</ele><time>2008-10-11T17:44:55Z</time></trkpt>
<trkpt lat="46.22006667" lon="5.35141667"><ele>460</ele><time>2008-10-11T17:44:59Z</time></trkpt>
<trkpt lat="46.21996667" lon="5.35128333"><ele>460</ele><time>2008-10-11T17:45:03Z</time></trkpt>
<trkpt lat="46.21986667" lon="5.35113333"><ele>460</ele><time>2008-10-11T17:45:07Z</time></trkpt>
<trkpt lat="46.21975000" lon="5.35091667"><ele>461</ele><time>2008-10-11T17:45:13Z</time></trkpt>
<trkpt lat="46.21963333" lon="5.35070000"><ele>461</ele><time>2008-10-11T17:45:19Z</time></trkpt>
<trkpt lat="46.21948333" lon="5.35058333"><ele>460</ele><time>2008-10-11T17:45:25Z</time></trkpt>
<trkpt lat="46.21933333" lon="5.35045000"><ele>460</ele><time>2008-10-11T17:45:31Z</time></trkpt>
<trkpt lat="46.21918333" lon="5.35030000"><ele>461</ele><time>2008-10-11T17:45:37Z</time></trkpt>
<trkpt lat="46.21908333" lon="5.35016667"><ele>461</ele><time>2008-10-11T17:45:41Z</time></trkpt>
<trkpt lat="46.21893333" lon="5.34996667"><ele>461</ele><time>2008-10-11T17:45:47Z</time></trkpt>
<trkpt lat="46.21881667" lon="5.34983333"><ele>461</ele><time>2008-10-11T17:45:51Z</time></trkpt>
<trkpt lat="46.21865000" lon="5.34966667"><ele>462</ele><time>2008-10-11T17:45:57Z</time></trkpt>
<trkpt lat="46.21851667" lon="5.34960000"><ele>462</ele><time>2008-10-11T17:46:01Z</time></trkpt>
<trkpt lat="46.21838333" lon="5.34943333"><ele>462</ele><time>2008-10-11T17:46:07Z</time></trkpt>
<trkpt lat="46.21826667" lon="5.34921667"><ele>462</ele><time>2008-10-11T17:46:13Z</time></trkpt>
<trkpt lat="46.21816667" lon="5.34908333"><ele>462</ele><time>2008-10-11T17:46:17Z</time></trkpt>
<trkpt lat="46.21803333" lon="5.34891667"><ele>462</ele><time>2008-10-11T17:46:23Z</time></trkpt>
<trkpt lat="46.21791667" lon="5.34880000"><ele>463</ele><time>2008-10-11T17:46:27Z</time></trkpt>
<trkpt lat="46.21766667" lon="5.34851667"><ele>462</ele><time>2008-10-11T17:46:37Z</time></trkpt>
<trkpt lat="46.21753333" lon="5.34833333"><ele>462</ele><time>2008-10-11T17:46:43Z</time></trkpt>
<trkpt lat="46.21743333" lon="5.34813333"><ele>463</ele><time>2008-10-11T17:46:49Z</time></trkpt>
<trkpt lat="46.21733333" lon="5.34796667"><ele>463</ele><time>2008-10-11T17:46:55Z</time></trkpt>
<trkpt lat="46.21721667" lon="5.34783333"><ele>464</ele><time>2008-10-11T17:47:01Z</time></trkpt>
<trkpt lat="46.21708333" lon="5.34775000"><ele>465</ele><time>2008-10-11T17:47:07Z</time></trkpt>
<trkpt lat="46.21696667" lon="5.34761667"><ele>466</ele><time>2008-10-11T17:47:13Z</time></trkpt>
<trkpt lat="46.21685000" lon="5.34748333"><ele>468</ele><time>2008-10-11T17:47:19Z</time></trkpt>
<trkpt lat="46.21648333" lon="5.34710000"><ele>470</ele><time>2008-10-11T17:47:37Z</time></trkpt>
<trkpt lat="46.21633333" lon="5.34706667"><ele>470</ele><time>2008-10-11T17:47:45Z</time></trkpt>
<trkpt lat="46.21616667" lon="5.34716667"><ele>470</ele><time>2008-10-11T17:47:51Z</time></trkpt>
<trkpt lat="46.21603333" lon="5.34725000"><ele>469</ele><time>2008-10-11T17:47:55Z</time></trkpt>
<trkpt lat="46.21590000" lon="5.34720000"><ele>468</ele><time>2008-10-11T17:47:59Z</time></trkpt>
<trkpt lat="46.21571667" lon="5.34708333"><ele>468</ele><time>2008-10-11T17:48:05Z</time></trkpt>
<trkpt lat="46.21555000" lon="5.34701667"><ele>467</ele><time>2008-10-11T17:48:09Z</time></trkpt>
<trkpt lat="46.21538333" lon="5.34693333"><ele>466</ele><time>2008-10-11T17:48:13Z</time></trkpt>
<trkpt lat="46.21480000" lon="5.34660000"><ele>465</ele><time>2008-10-11T17:48:26Z</time></trkpt>
<trkpt lat="46.21461667" lon="5.34645000"><ele>464</ele><time>2008-10-11T17:48:30Z</time></trkpt>
<trkpt lat="46.21428333" lon="5.34621667"><ele>464</ele><time>2008-10-11T17:48:38Z</time></trkpt>
<trkpt lat="46.21413333" lon="5.34630000"><ele>462</ele><time>2008-10-11T17:48:42Z</time></trkpt>
<trkpt lat="46.21403333" lon="5.34643333"><ele>460</ele><time>2008-10-11T17:48:44Z</time></trkpt>
<trkpt lat="46.21390000" lon="5.34653333"><ele>459</ele><time>2008-10-11T17:48:46Z</time></trkpt>
<trkpt lat="46.21376667" lon="5.34661667"><ele>459</ele><time>2008-10-11T17:48:48Z</time></trkpt>
<trkpt lat="46.21356667" lon="5.34671667"><ele>461</ele><time>2008-10-11T17:48:52Z</time></trkpt>
<trkpt lat="46.21340000" lon="5.34660000"><ele>462</ele><time>2008-10-11T17:48:56Z</time></trkpt>
<trkpt lat="46.21321667" lon="5.34640000"><ele>463</ele><time>2008-10-11T17:49:02Z</time></trkpt>
<trkpt lat="46.21310000" lon="5.34628333"><ele>463</ele><time>2008-10-11T17:49:06Z</time></trkpt>
<trkpt lat="46.21298333" lon="5.34616667"><ele>463</ele><time>2008-10-11T17:49:10Z</time></trkpt>
<trkpt lat="46.21223333" lon="5.34538333"><ele>464</ele><time>2008-10-11T17:49:28Z</time></trkpt>
<trkpt lat="46.21181667" lon="5.34491667"><ele>464</ele><time>2008-10-11T17:49:38Z</time></trkpt>
<trkpt lat="46.21166667" lon="5.34476667"><ele>464</ele><time>2008-10-11T17:49:42Z</time></trkpt>
<trkpt lat="46.21123333" lon="5.34433333"><ele>463</ele><time>2008-10-11T17:49:54Z</time></trkpt>
<trkpt lat="46.21093333" lon="5.34405000"><ele>464</ele><time>2008-10-11T17:50:02Z</time></trkpt>
<trkpt lat="46.21051667" lon="5.34360000"><ele>461</ele><time>2008-10-11T17:50:14Z</time></trkpt>
<trkpt lat="46.21030000" lon="5.34336667"><ele>459</ele><time>2008-10-11T17:50:20Z</time></trkpt>
<trkpt lat="46.21005000" lon="5.34305000"><ele>457</ele><time>2008-10-11T17:50:28Z</time></trkpt>
<trkpt lat="46.20990000" lon="5.34290000"><ele>457</ele><time>2008-10-11T17:50:32Z</time></trkpt>
<trkpt lat="46.20970000" lon="5.34266667"><ele>457</ele><time>2008-10-11T17:50:38Z</time></trkpt>
<trkpt lat="46.20935000" lon="5.34223333"><ele>458</ele><time>2008-10-11T17:50:48Z</time></trkpt>
<trkpt lat="46.20920000" lon="5.34206667"><ele>459</ele><time>2008-10-11T17:50:52Z</time></trkpt>
<trkpt lat="46.20908333" lon="5.34186667"><ele>459</ele><time>2008-10-11T17:50:56Z</time></trkpt>
<trkpt lat="46.20865000" lon="5.34110000"><ele>462</ele><time>2008-10-11T17:51:08Z</time></trkpt>
<trkpt lat="46.20855000" lon="5.34085000"><ele>464</ele><time>2008-10-11T17:51:12Z</time></trkpt>
<trkpt lat="46.20850000" lon="5.34060000"><ele>464</ele><time>2008-10-11T17:51:16Z</time></trkpt>
<trkpt lat="46.20851667" lon="5.34035000"><ele>464</ele><time>2008-10-11T17:51:20Z</time></trkpt>
<trkpt lat="46.20851667" lon="5.34015000"><ele>465</ele><time>2008-10-11T17:51:24Z</time></trkpt>
<trkpt lat="46.20838333" lon="5.34006667"><ele>466</ele><time>2008-10-11T17:51:28Z</time></trkpt>
<trkpt lat="46.20820000" lon="5.34000000"><ele>467</ele><time>2008-10-11T17:51:34Z</time></trkpt>
<trkpt lat="46.20778333" lon="5.33988333"><ele>466</ele><time>2008-10-11T17:53:42Z</time></trkpt>
<trkpt lat="46.20746667" lon="5.33980000"><ele>463</ele><time>2008-10-11T17:53:48Z</time></trkpt>
<trkpt lat="46.20725000" lon="5.33978333"><ele>462</ele><time>2008-10-11T17:53:52Z</time></trkpt>
<trkpt lat="46.20698333" lon="5.33978333"><ele>460</ele><time>2008-10-11T17:53:56Z</time></trkpt>
<trkpt lat="46.20670000" lon="5.33973333"><ele>458</ele><time>2008-10-11T17:54:00Z</time></trkpt>
<trkpt lat="46.20625000" lon="5.33963333"><ele>456</ele><time>2008-10-11T17:54:06Z</time></trkpt>
<trkpt lat="46.20596667" lon="5.33961667"><ele>455</ele><time>2008-10-11T17:54:10Z</time></trkpt>
<trkpt lat="46.20581667" lon="5.33961667"><ele>454</ele><time>2008-10-11T17:54:12Z</time></trkpt>
<trkpt lat="46.20518333" lon="5.33965000"><ele>448</ele><time>2008-10-11T17:54:20Z</time></trkpt>
<trkpt lat="46.20501667" lon="5.33966667"><ele>446</ele><time>2008-10-11T17:54:22Z</time></trkpt>
<trkpt lat="46.20485000" lon="5.33970000"><ele>446</ele><time>2008-10-11T17:54:24Z</time></trkpt>
<trkpt lat="46.20456667" lon="5.33975000"><ele>446</ele><time>2008-10-11T17:54:28Z</time></trkpt>
<trkpt lat="46.20430000" lon="5.33973333"><ele>444</ele><time>2008-10-11T17:54:32Z</time></trkpt>
<trkpt lat="46.20403333" lon="5.33970000"><ele>442</ele><time>2008-10-11T17:54:36Z</time></trkpt>
<trkpt lat="46.20258333" lon="5.33950000"><ele>437</ele><time>2008-10-11T17:54:58Z</time></trkpt>
<trkpt lat="46.20245000" lon="5.33955000"><ele>437</ele><time>2008-10-11T17:55:00Z</time></trkpt>
<trkpt lat="46.20231667" lon="5.33961667"><ele>438</ele><time>2008-10-11T17:55:02Z</time></trkpt>
<trkpt lat="46.20205000" lon="5.33971667"><ele>438</ele><time>2008-10-11T17:55:06Z</time></trkpt>
<trkpt lat="46.20180000" lon="5.33970000"><ele>438</ele><time>2008-10-11T17:55:10Z</time></trkpt>
<trkpt lat="46.20161667" lon="5.33958333"><ele>438</ele><time>2008-10-11T17:55:14Z</time></trkpt>
<trkpt lat="46.20148333" lon="5.33946667"><ele>437</ele><time>2008-10-11T17:55:18Z</time></trkpt>
<trkpt lat="46.20138333" lon="5.33931667"><ele>437</ele><time>2008-10-11T17:55:22Z</time></trkpt>
<trkpt lat="46.20123333" lon="5.33916667"><ele>438</ele><time>2008-10-11T17:55:28Z</time></trkpt>
<trkpt lat="46.20108333" lon="5.33900000"><ele>437</ele><time>2008-10-11T17:55:36Z</time></trkpt>
<trkpt lat="46.20091667" lon="5.33885000"><ele>438</ele><time>2008-10-11T17:55:46Z</time></trkpt>
<trkpt lat="46.20076667" lon="5.33878333"><ele>441</ele><time>2008-10-11T17:55:56Z</time></trkpt>
<trkpt lat="46.20065000" lon="5.33865000"><ele>441</ele><time>2008-10-11T17:56:06Z</time></trkpt>
<trkpt lat="46.20050000" lon="5.33855000"><ele>443</ele><time>2008-10-11T17:56:14Z</time></trkpt>
<trkpt lat="46.20031667" lon="5.33841667"><ele>445</ele><time>2008-10-11T17:56:26Z</time></trkpt>
<trkpt lat="46.20016667" lon="5.33830000"><ele>447</ele><time>2008-10-11T17:56:36Z</time></trkpt>
<trkpt lat="46.20006667" lon="5.33815000"><ele>447</ele><time>2008-10-11T17:56:47Z</time></trkpt>
<trkpt lat="46.19993333" lon="5.33805000"><ele>450</ele><time>2008-10-11T17:56:59Z</time></trkpt>
<trkpt lat="46.19973333" lon="5.33793333"><ele>455</ele><time>2008-10-11T17:57:17Z</time></trkpt>
<trkpt lat="46.19961667" lon="5.33783333"><ele>457</ele><time>2008-10-11T17:57:27Z</time></trkpt>
<trkpt lat="46.19953333" lon="5.33766667"><ele>458</ele><time>2008-10-11T17:57:35Z</time></trkpt>
<trkpt lat="46.19960000" lon="5.33745000"><ele>455</ele><time>2008-10-11T17:57:47Z</time></trkpt>
<trkpt lat="46.19965000" lon="5.33723333"><ele>457</ele><time>2008-10-11T17:57:59Z</time></trkpt>
<trkpt lat="46.19968333" lon="5.33703333"><ele>460</ele><time>2008-10-11T17:58:09Z</time></trkpt>
<trkpt lat="46.19980000" lon="5.33685000"><ele>461</ele><time>2008-10-11T17:58:19Z</time></trkpt>
<trkpt lat="46.19988333" lon="5.33663333"><ele>463</ele><time>2008-10-11T17:58:31Z</time></trkpt>
<trkpt lat="46.19988333" lon="5.33640000"><ele>465</ele><time>2008-10-11T17:58:41Z</time></trkpt>
<trkpt lat="46.19990000" lon="5.33616667"><ele>466</ele><time>2008-10-11T17:58:53Z</time></trkpt>
</trkseg></trk></gpx>